UAL134 PHNL-PKMJ
Flight info
| Callsign | UAL134 |
|---|---|
| Flight time | 4h 50m |
| Altitude | 36000 |
| Route | OPIHI3 CHOKO R584 MAZZA 10N177E EFAHU |
| Aircraft | B38M/M-SDE1FGHILORVWXY/HB1 |
Departure
| Time | 2026-04-22 13:46 |
|---|---|
| Airport | Daniel K. Inouye International Airport (PHNL) |
Arrival
| Time | 2026-04-22 18:37 |
|---|---|
| Airport | Marshall Islands International Airport (PKMJ) |
| Time | Latitude | Longitude | Altitude | Speed | Heading |
|---|---|---|---|---|---|
| 2026-04-22 13:25 | 21.32866 | -157.91571 | 26 ft | 2 kts | 360° |
| 2026-04-22 13:26 | 21.32850 | -157.91571 | 26 ft | 4 kts | 2° |
| 2026-04-22 13:27 | 21.32823 | -157.91573 | 26 ft | 4 kts | 4° |
| 2026-04-22 13:27 | 21.32796 | -157.91574 | 26 ft | 4 kts | 356° |
| 2026-04-22 13:27 | 21.32774 | -157.91568 | 26 ft | 4 kts | 302° |
| 2026-04-22 13:27 | 21.32772 | -157.91546 | 26 ft | 4 kts | 269° |
| 2026-04-22 13:28 | 21.32773 | -157.91517 | 26 ft | 4 kts | 266° |
| 2026-04-22 13:28 | 21.32774 | -157.91509 | 26 ft | 2 kts | 267° |
| 2026-04-22 13:31 | 21.32774 | -157.91510 | 26 ft | 1 kts | 266° |
| 2026-04-22 13:31 | 21.32772 | -157.91524 | 26 ft | 3 kts | 264° |
| 2026-04-22 13:31 | 21.32772 | -157.91548 | 26 ft | 4 kts | 270° |
| 2026-04-22 13:32 | 21.32772 | -157.91583 | 26 ft | 5 kts | 270° |
| 2026-04-22 13:32 | 21.32772 | -157.91629 | 26 ft | 7 kts | 270° |
| 2026-04-22 13:32 | 21.32772 | -157.91685 | 26 ft | 8 kts | 270° |
| 2026-04-22 13:32 | 21.32773 | -157.91751 | 26 ft | 10 kts | 270° |
| 2026-04-22 13:33 | 21.32773 | -157.91826 | 26 ft | 9 kts | 270° |
| 2026-04-22 13:33 | 21.32770 | -157.91873 | 26 ft | 6 kts | 257° |
| 2026-04-22 13:33 | 21.32747 | -157.91918 | 29 ft | 8 kts | 239° |
| 2026-04-22 13:33 | 21.32717 | -157.91970 | 26 ft | 9 kts | 239° |
| 2026-04-22 13:34 | 21.32692 | -157.92035 | 26 ft | 10 kts | 263° |
| 2026-04-22 13:34 | 21.32691 | -157.92115 | 26 ft | 11 kts | 270° |
| 2026-04-22 13:34 | 21.32692 | -157.92203 | 27 ft | 12 kts | 270° |
| 2026-04-22 13:34 | 21.32692 | -157.92299 | 27 ft | 13 kts | 270° |
| 2026-04-22 13:35 | 21.32692 | -157.92404 | 27 ft | 15 kts | 270° |
| 2026-04-22 13:35 | 21.32693 | -157.92517 | 27 ft | 16 kts | 270° |
| 2026-04-22 13:35 | 21.32693 | -157.92637 | 27 ft | 17 kts | 270° |
| 2026-04-22 13:35 | 21.32712 | -157.92762 | 27 ft | 18 kts | 298° |
| 2026-04-22 13:36 | 21.32743 | -157.92889 | 27 ft | 18 kts | 270° |
| 2026-04-22 13:36 | 21.32743 | -157.93029 | 27 ft | 19 kts | 270° |
| 2026-04-22 13:36 | 21.32743 | -157.93175 | 27 ft | 20 kts | 270° |
| 2026-04-22 13:36 | 21.32743 | -157.93328 | 27 ft | 21 kts | 270° |
| 2026-04-22 13:37 | 21.32744 | -157.93486 | 27 ft | 22 kts | 270° |
| 2026-04-22 13:37 | 21.32743 | -157.93650 | 27 ft | 22 kts | 269° |
| 2026-04-22 13:37 | 21.32741 | -157.93819 | 27 ft | 23 kts | 269° |
| 2026-04-22 13:37 | 21.32740 | -157.93988 | 27 ft | 18 kts | 269° |
| 2026-04-22 13:38 | 21.32706 | -157.94082 | 27 ft | 14 kts | 212° |
| 2026-04-22 13:38 | 21.32516 | -157.94196 | 27 ft | 17 kts | 209° |
| 2026-04-22 13:38 | 21.32412 | -157.94258 | 27 ft | 18 kts | 209° |
| 2026-04-22 13:39 | 21.32301 | -157.94324 | 27 ft | 19 kts | 209° |
| 2026-04-22 13:39 | 21.32185 | -157.94395 | 27 ft | 20 kts | 209° |
| 2026-04-22 13:39 | 21.32063 | -157.94467 | 27 ft | 21 kts | 209° |
| 2026-04-22 13:39 | 21.31935 | -157.94544 | 27 ft | 21 kts | 209° |
| 2026-04-22 13:40 | 21.31823 | -157.94611 | 27 ft | 16 kts | 209° |
| 2026-04-22 13:40 | 21.31716 | -157.94656 | 27 ft | 17 kts | 191° |
| 2026-04-22 13:40 | 21.31594 | -157.94654 | 27 ft | 18 kts | 173° |
| 2026-04-22 13:40 | 21.31464 | -157.94636 | 27 ft | 19 kts | 173° |
| 2026-04-22 13:41 | 21.31327 | -157.94618 | 27 ft | 20 kts | 173° |
| 2026-04-22 13:41 | 21.31184 | -157.94600 | 27 ft | 21 kts | 173° |
| 2026-04-22 13:41 | 21.31041 | -157.94583 | 27 ft | 18 kts | 173° |
| 2026-04-22 13:41 | 21.30972 | -157.94533 | 27 ft | 11 kts | 98° |
| 2026-04-22 13:42 | 21.30952 | -157.94457 | 27 ft | 11 kts | 140° |
| 2026-04-22 13:42 | 21.30873 | -157.94448 | 27 ft | 11 kts | 181° |
| 2026-04-22 13:42 | 21.30817 | -157.94449 | 27 ft | 0 kts | 180° |
| 2026-04-22 13:44 | 21.30815 | -157.94449 | 27 ft | 1 kts | 180° |
| 2026-04-22 13:44 | 21.30807 | -157.94449 | 27 ft | 2 kts | 180° |
| 2026-04-22 13:44 | 21.30794 | -157.94449 | 28 ft | 2 kts | 180° |
| 2026-04-22 13:44 | 21.30777 | -157.94449 | 28 ft | 3 kts | 180° |
| 2026-04-22 13:45 | 21.30747 | -157.94449 | 28 ft | 6 kts | 180° |
| 2026-04-22 13:45 | 21.30690 | -157.94436 | 30 ft | 10 kts | 135° |
| 2026-04-22 13:45 | 21.30681 | -157.94318 | 31 ft | 37 kts | 90° |
| 2026-04-22 13:45 | 21.30684 | -157.93763 | 28 ft | 110 kts | 90° |
| 2026-04-22 13:46 | 21.30686 | -157.92716 | 28 ft | 168 kts | 89° |
| 2026-04-22 13:46 | 21.30680 | -157.91349 | 379 ft | 191 kts | 90° |
| 2026-04-22 13:46 | 21.30649 | -157.89892 | 1111 ft | 197 kts | 92° |
| 2026-04-22 13:46 | 21.30279 | -157.88486 | 1902 ft | 205 kts | 120° |
| 2026-04-22 13:47 | 21.29232 | -157.87331 | 2356 ft | 229 kts | 141° |
| 2026-04-22 13:47 | 21.27741 | -157.86562 | 2913 ft | 245 kts | 164° |
| 2026-04-22 13:47 | 21.26052 | -157.86199 | 3781 ft | 251 kts | 167° |
| 2026-04-22 13:47 | 21.24337 | -157.85833 | 4711 ft | 256 kts | 167° |
| 2026-04-22 13:48 | 21.22518 | -157.85526 | 5286 ft | 275 kts | 182° |
| 2026-04-22 13:48 | 21.20722 | -157.86178 | 6145 ft | 274 kts | 219° |
| 2026-04-22 13:48 | 21.19507 | -157.87733 | 7033 ft | 276 kts | 240° |
| 2026-04-22 13:48 | 21.18396 | -157.89425 | 7868 ft | 279 kts | 229° |
| 2026-04-22 13:49 | 21.17098 | -157.90979 | 8773 ft | 281 kts | 230° |
| 2026-04-22 13:49 | 21.15806 | -157.92570 | 9636 ft | 284 kts | 230° |
| 2026-04-22 13:49 | 21.14508 | -157.94186 | 10381 ft | 292 kts | 231° |
| 2026-04-22 13:49 | 21.13147 | -157.95893 | 10731 ft | 311 kts | 231° |
| 2026-04-22 13:50 | 21.12201 | -157.97086 | 10974 ft | 323 kts | 231° |
| 2026-04-22 13:50 | 21.10206 | -157.99612 | 11633 ft | 338 kts | 231° |
| 2026-04-22 13:50 | 21.08684 | -158.01549 | 12297 ft | 343 kts | 232° |
| 2026-04-22 13:50 | 21.07260 | -158.03617 | 12875 ft | 348 kts | 245° |
| 2026-04-22 13:51 | 21.06509 | -158.06058 | 13550 ft | 347 kts | 263° |
| 2026-04-22 13:51 | 21.06157 | -158.08641 | 14078 ft | 354 kts | 264° |
| 2026-04-22 13:51 | 21.05833 | -158.11257 | 14737 ft | 355 kts | 266° |
| 2026-04-22 13:51 | 21.05580 | -158.13891 | 15344 ft | 357 kts | 266° |
| 2026-04-22 13:52 | 21.05338 | -158.16544 | 15959 ft | 359 kts | 266° |
| 2026-04-22 13:52 | 21.05099 | -158.19214 | 16561 ft | 362 kts | 266° |
| 2026-04-22 13:52 | 21.04860 | -158.21903 | 17137 ft | 365 kts | 266° |
| 2026-04-22 13:52 | 21.04620 | -158.24611 | 17735 ft | 366 kts | 266° |
| 2026-04-22 13:53 | 21.04377 | -158.27341 | 18310 ft | 369 kts | 266° |
| 2026-04-22 13:53 | 21.04132 | -158.30079 | 18796 ft | 371 kts | 266° |
| 2026-04-22 13:53 | 21.03886 | -158.32838 | 19290 ft | 373 kts | 266° |
| 2026-04-22 13:53 | 21.03639 | -158.35603 | 19768 ft | 375 kts | 266° |
| 2026-04-22 13:54 | 21.03390 | -158.38389 | 20254 ft | 377 kts | 266° |
| 2026-04-22 13:54 | 21.03139 | -158.41185 | 20731 ft | 378 kts | 266° |
| 2026-04-22 13:54 | 21.02886 | -158.43996 | 21204 ft | 381 kts | 266° |
| 2026-04-22 13:54 | 21.02632 | -158.46821 | 21658 ft | 382 kts | 266° |
| 2026-04-22 13:55 | 21.02376 | -158.49660 | 22107 ft | 384 kts | 265° |
| 2026-04-22 13:55 | 21.02118 | -158.52511 | 22556 ft | 386 kts | 265° |
| 2026-04-22 13:55 | 21.01858 | -158.55379 | 22995 ft | 388 kts | 265° |
| 2026-04-22 13:55 | 21.01597 | -158.58262 | 23430 ft | 390 kts | 265° |
| 2026-04-22 13:56 | 21.01334 | -158.61156 | 23823 ft | 392 kts | 265° |
| 2026-04-22 13:56 | 21.01069 | -158.64070 | 24147 ft | 394 kts | 265° |
| 2026-04-22 13:56 | 21.00892 | -158.66003 | 24367 ft | 396 kts | 265° |
| 2026-04-22 13:56 | 21.00623 | -158.68948 | 24713 ft | 398 kts | 265° |
| 2026-04-22 13:57 | 21.00353 | -158.71904 | 25048 ft | 400 kts | 265° |
| 2026-04-22 13:57 | 21.00081 | -158.74874 | 25375 ft | 403 kts | 265° |
| 2026-04-22 13:57 | 20.99805 | -158.77869 | 25706 ft | 405 kts | 265° |
| 2026-04-22 13:57 | 20.99529 | -158.80874 | 26027 ft | 407 kts | 265° |
| 2026-04-22 13:58 | 20.99250 | -158.83895 | 26343 ft | 409 kts | 265° |
| 2026-04-22 13:58 | 20.98969 | -158.86933 | 26657 ft | 412 kts | 265° |
| 2026-04-22 13:58 | 20.98686 | -158.89991 | 26950 ft | 414 kts | 265° |
| 2026-04-22 13:58 | 20.98400 | -158.93070 | 27252 ft | 416 kts | 265° |
| 2026-04-22 13:59 | 20.98114 | -158.96155 | 27545 ft | 418 kts | 265° |
| 2026-04-22 13:59 | 20.97820 | -158.99261 | 27841 ft | 421 kts | 264° |
| 2026-04-22 13:59 | 20.97106 | -159.02302 | 28135 ft | 424 kts | 252° |
| 2026-04-22 13:59 | 20.96163 | -159.05299 | 28399 ft | 427 kts | 253° |
| 2026-04-22 14:00 | 20.95234 | -159.08324 | 28660 ft | 429 kts | 253° |
| 2026-04-22 14:00 | 20.94288 | -159.11363 | 28970 ft | 431 kts | 253° |
| 2026-04-22 14:00 | 20.93336 | -159.14409 | 29235 ft | 433 kts | 253° |
| 2026-04-22 14:00 | 20.92375 | -159.17471 | 29503 ft | 435 kts | 253° |
| 2026-04-22 14:01 | 20.91411 | -159.20545 | 29770 ft | 437 kts | 253° |
| 2026-04-22 14:01 | 20.90441 | -159.23634 | 30017 ft | 439 kts | 253° |
| 2026-04-22 14:01 | 20.89465 | -159.26737 | 30249 ft | 441 kts | 253° |
| 2026-04-22 14:01 | 20.88485 | -159.29853 | 30466 ft | 443 kts | 253° |
| 2026-04-22 14:02 | 20.87499 | -159.32986 | 30686 ft | 445 kts | 253° |
| 2026-04-22 14:02 | 20.86510 | -159.36125 | 30910 ft | 446 kts | 253° |
| 2026-04-22 14:02 | 20.85518 | -159.39274 | 31119 ft | 448 kts | 253° |
| 2026-04-22 14:02 | 20.84520 | -159.42435 | 31331 ft | 450 kts | 253° |
| 2026-04-22 14:03 | 20.83517 | -159.45611 | 31546 ft | 451 kts | 253° |
| 2026-04-22 14:03 | 20.82512 | -159.48795 | 31756 ft | 453 kts | 253° |
| 2026-04-22 14:03 | 20.81502 | -159.51990 | 31966 ft | 455 kts | 253° |
| 2026-04-22 14:03 | 20.80488 | -159.55194 | 32171 ft | 456 kts | 253° |
| 2026-04-22 14:04 | 20.79471 | -159.58408 | 32404 ft | 457 kts | 253° |
| 2026-04-22 14:04 | 20.78453 | -159.61619 | 32681 ft | 456 kts | 253° |
| 2026-04-22 14:04 | 20.77436 | -159.64827 | 32947 ft | 456 kts | 253° |
| 2026-04-22 14:04 | 20.76418 | -159.68036 | 33195 ft | 455 kts | 253° |
| 2026-04-22 14:05 | 20.75402 | -159.71238 | 33451 ft | 455 kts | 253° |
| 2026-04-22 14:05 | 20.74386 | -159.74436 | 33715 ft | 455 kts | 253° |
| 2026-04-22 14:05 | 20.72354 | -159.80827 | 34202 ft | 454 kts | 253° |
| 2026-04-22 14:06 | 20.71353 | -159.83970 | 34421 ft | 453 kts | 253° |
| 2026-04-22 14:06 | 20.70339 | -159.87154 | 34641 ft | 453 kts | 253° |
| 2026-04-22 14:06 | 20.69324 | -159.90336 | 34882 ft | 451 kts | 253° |
| 2026-04-22 14:06 | 20.68313 | -159.93507 | 35110 ft | 451 kts | 253° |
| 2026-04-22 14:07 | 20.67302 | -159.96671 | 35331 ft | 450 kts | 253° |
| 2026-04-22 14:07 | 20.66294 | -159.99828 | 35545 ft | 449 kts | 253° |
| 2026-04-22 14:07 | 20.65285 | -160.02984 | 35754 ft | 448 kts | 253° |
| 2026-04-22 14:07 | 20.64279 | -160.06129 | 35958 ft | 448 kts | 253° |
| 2026-04-22 14:08 | 20.63272 | -160.09272 | 36070 ft | 447 kts | 253° |
| 2026-04-22 14:08 | 20.61265 | -160.15536 | 36050 ft | 445 kts | 254° |
| 2026-04-22 14:09 | 20.59257 | -160.21791 | 36050 ft | 446 kts | 254° |
| 2026-04-22 14:09 | 20.57248 | -160.28043 | 36056 ft | 445 kts | 254° |
| 2026-04-22 14:10 | 20.55237 | -160.34290 | 36054 ft | 445 kts | 254° |
| 2026-04-22 14:10 | 20.53224 | -160.40536 | 36056 ft | 445 kts | 253° |
| 2026-04-22 14:11 | 20.51210 | -160.46777 | 36055 ft | 445 kts | 253° |
| 2026-04-22 14:11 | 20.49194 | -160.53017 | 36057 ft | 445 kts | 253° |
| 2026-04-22 14:12 | 20.47174 | -160.59259 | 36059 ft | 444 kts | 253° |
| 2026-04-22 14:12 | 20.45157 | -160.65485 | 36059 ft | 444 kts | 253° |
| 2026-04-22 14:13 | 20.43136 | -160.71714 | 36055 ft | 444 kts | 253° |
| 2026-04-22 14:13 | 20.41114 | -160.77939 | 36057 ft | 445 kts | 253° |
| 2026-04-22 14:14 | 20.39100 | -160.84122 | 36053 ft | 445 kts | 253° |
| 2026-04-22 14:14 | 20.36902 | -160.90283 | 36063 ft | 446 kts | 250° |
| 2026-04-22 14:15 | 20.34497 | -160.96382 | 36050 ft | 446 kts | 250° |
| 2026-04-22 14:15 | 20.32120 | -161.02477 | 36052 ft | 446 kts | 250° |
| 2026-04-22 14:16 | 20.29740 | -161.08580 | 36057 ft | 446 kts | 250° |
| 2026-04-22 14:16 | 20.27360 | -161.14680 | 36059 ft | 446 kts | 250° |
| 2026-04-22 14:17 | 20.24978 | -161.20776 | 36059 ft | 446 kts | 250° |
| 2026-04-22 14:17 | 20.22593 | -161.26873 | 36052 ft | 446 kts | 250° |
| 2026-04-22 14:18 | 20.20205 | -161.32968 | 36052 ft | 446 kts | 250° |
| 2026-04-22 14:18 | 20.17817 | -161.39058 | 36055 ft | 446 kts | 250° |
| 2026-04-22 14:19 | 20.15440 | -161.45110 | 36055 ft | 446 kts | 250° |
| 2026-04-22 14:19 | 20.13047 | -161.51199 | 36041 ft | 446 kts | 250° |
| 2026-04-22 14:20 | 20.09454 | -161.60327 | 36053 ft | 446 kts | 250° |
| 2026-04-22 14:20 | 20.07057 | -161.66407 | 36048 ft | 446 kts | 250° |
| 2026-04-22 14:21 | 20.03462 | -161.75512 | 36058 ft | 445 kts | 250° |
| 2026-04-22 14:22 | 19.99858 | -161.84623 | 36053 ft | 446 kts | 250° |
| 2026-04-22 14:23 | 19.96250 | -161.93729 | 36051 ft | 445 kts | 250° |
| 2026-04-22 14:23 | 19.93843 | -161.99797 | 36050 ft | 445 kts | 250° |
| 2026-04-22 14:24 | 19.91450 | -162.05818 | 36052 ft | 446 kts | 250° |
| 2026-04-22 14:24 | 19.89039 | -162.11882 | 36055 ft | 445 kts | 250° |
| 2026-04-22 14:25 | 19.86628 | -162.17939 | 36051 ft | 445 kts | 250° |
| 2026-04-22 14:25 | 19.84214 | -162.23993 | 36053 ft | 445 kts | 250° |
| 2026-04-22 14:26 | 19.81798 | -162.30049 | 36053 ft | 446 kts | 250° |
| 2026-04-22 14:26 | 19.79378 | -162.36104 | 36052 ft | 445 kts | 250° |
| 2026-04-22 14:27 | 19.76959 | -162.42152 | 36056 ft | 445 kts | 250° |
| 2026-04-22 14:27 | 19.74534 | -162.48207 | 36053 ft | 445 kts | 250° |
| 2026-04-22 14:28 | 19.72110 | -162.54253 | 36052 ft | 445 kts | 250° |
| 2026-04-22 14:28 | 19.69685 | -162.60298 | 36044 ft | 445 kts | 250° |
| 2026-04-22 14:29 | 19.67253 | -162.66353 | 36053 ft | 446 kts | 250° |
| 2026-04-22 14:29 | 19.64861 | -162.72424 | 36051 ft | 446 kts | 251° |
| 2026-04-22 14:30 | 19.62496 | -162.78502 | 36047 ft | 446 kts | 251° |
| 2026-04-22 14:30 | 19.60126 | -162.84583 | 36054 ft | 446 kts | 251° |
| 2026-04-22 14:31 | 19.57753 | -162.90662 | 36056 ft | 446 kts | 251° |
| 2026-04-22 14:31 | 19.55377 | -162.96742 | 36047 ft | 446 kts | 251° |
| 2026-04-22 14:32 | 19.52998 | -163.02824 | 36057 ft | 447 kts | 251° |
| 2026-04-22 14:32 | 19.50613 | -163.08913 | 36053 ft | 447 kts | 251° |
| 2026-04-22 14:33 | 19.48229 | -163.14992 | 36049 ft | 447 kts | 251° |
| 2026-04-22 14:33 | 19.45859 | -163.21029 | 36051 ft | 447 kts | 251° |
| 2026-04-22 14:34 | 19.43470 | -163.27109 | 36051 ft | 447 kts | 251° |
| 2026-04-22 14:34 | 19.41079 | -163.33186 | 36047 ft | 447 kts | 251° |
| 2026-04-22 14:35 | 19.38684 | -163.39265 | 36053 ft | 447 kts | 251° |
| 2026-04-22 14:35 | 19.36289 | -163.45340 | 36047 ft | 447 kts | 251° |
| 2026-04-22 14:36 | 19.33891 | -163.51413 | 36050 ft | 446 kts | 250° |
| 2026-04-22 14:36 | 19.31495 | -163.57475 | 36050 ft | 446 kts | 250° |
| 2026-04-22 14:37 | 19.29111 | -163.63500 | 36054 ft | 447 kts | 250° |
| 2026-04-22 14:37 | 19.26694 | -163.69602 | 36050 ft | 447 kts | 250° |
| 2026-04-22 14:38 | 19.24304 | -163.75628 | 36050 ft | 447 kts | 250° |
| 2026-04-22 14:38 | 19.21899 | -163.81686 | 36051 ft | 447 kts | 250° |
| 2026-04-22 14:39 | 19.19489 | -163.87748 | 36051 ft | 447 kts | 250° |
| 2026-04-22 14:39 | 19.17077 | -163.93811 | 36051 ft | 447 kts | 250° |
| 2026-04-22 14:40 | 19.13457 | -164.02896 | 36046 ft | 447 kts | 250° |
| 2026-04-22 14:40 | 19.11041 | -164.08950 | 36047 ft | 447 kts | 250° |
| 2026-04-22 14:41 | 19.08623 | -164.15002 | 36048 ft | 446 kts | 250° |
| 2026-04-22 14:41 | 19.06207 | -164.21044 | 36049 ft | 446 kts | 250° |
| 2026-04-22 14:42 | 19.03791 | -164.27080 | 36049 ft | 446 kts | 250° |
| 2026-04-22 14:42 | 19.01373 | -164.33112 | 36051 ft | 446 kts | 250° |
| 2026-04-22 14:43 | 18.98952 | -164.39146 | 36043 ft | 446 kts | 250° |
| 2026-04-22 14:43 | 18.96525 | -164.45188 | 36047 ft | 446 kts | 250° |
| 2026-04-22 14:44 | 18.94099 | -164.51222 | 36050 ft | 446 kts | 250° |
| 2026-04-22 14:44 | 18.91686 | -164.57216 | 36050 ft | 446 kts | 250° |
| 2026-04-22 14:45 | 18.89254 | -164.63249 | 36046 ft | 446 kts | 250° |
| 2026-04-22 14:45 | 18.86822 | -164.69277 | 36046 ft | 447 kts | 250° |
| 2026-04-22 14:46 | 18.84388 | -164.75305 | 36046 ft | 446 kts | 250° |
| 2026-04-22 14:46 | 18.81951 | -164.81332 | 36044 ft | 446 kts | 250° |
| 2026-04-22 14:47 | 18.79515 | -164.87350 | 36044 ft | 445 kts | 250° |
| 2026-04-22 14:47 | 18.77080 | -164.93360 | 36046 ft | 446 kts | 250° |
| 2026-04-22 14:48 | 18.75054 | -164.98356 | 36046 ft | 446 kts | 250° |
| 2026-04-22 14:48 | 18.72612 | -165.04371 | 36045 ft | 446 kts | 250° |
| 2026-04-22 14:49 | 18.70170 | -165.10378 | 36044 ft | 446 kts | 250° |
| 2026-04-22 14:49 | 18.67724 | -165.16390 | 36045 ft | 446 kts | 250° |
| 2026-04-22 14:50 | 18.65277 | -165.22399 | 36045 ft | 446 kts | 249° |
| 2026-04-22 14:50 | 18.62830 | -165.28400 | 36045 ft | 446 kts | 249° |
| 2026-04-22 14:51 | 18.60378 | -165.34408 | 36045 ft | 446 kts | 249° |
| 2026-04-22 14:51 | 18.57925 | -165.40411 | 36043 ft | 446 kts | 249° |
| 2026-04-22 14:52 | 18.55472 | -165.46407 | 36041 ft | 445 kts | 249° |
| 2026-04-22 14:52 | 18.53018 | -165.52400 | 36042 ft | 445 kts | 249° |
| 2026-04-22 14:53 | 18.50568 | -165.58377 | 36042 ft | 444 kts | 249° |
| 2026-04-22 14:53 | 18.48116 | -165.64353 | 36043 ft | 445 kts | 249° |
| 2026-04-22 14:54 | 18.45661 | -165.70330 | 36045 ft | 445 kts | 249° |
| 2026-04-22 14:54 | 18.43202 | -165.76312 | 36043 ft | 445 kts | 249° |
| 2026-04-22 14:55 | 18.40745 | -165.82281 | 36041 ft | 444 kts | 249° |
| 2026-04-22 14:55 | 18.38287 | -165.88244 | 36044 ft | 444 kts | 249° |
| 2026-04-22 14:56 | 18.35843 | -165.94170 | 36043 ft | 444 kts | 249° |
| 2026-04-22 14:56 | 18.33383 | -166.00129 | 36042 ft | 444 kts | 249° |
| 2026-04-22 14:57 | 18.30919 | -166.06088 | 36042 ft | 444 kts | 249° |
| 2026-04-22 14:57 | 18.28456 | -166.12043 | 36042 ft | 444 kts | 249° |
| 2026-04-22 14:58 | 18.25990 | -166.17995 | 36040 ft | 443 kts | 249° |
| 2026-04-22 14:58 | 18.23524 | -166.23942 | 36041 ft | 443 kts | 249° |
| 2026-04-22 14:59 | 18.21061 | -166.29878 | 36042 ft | 443 kts | 249° |
| 2026-04-22 14:59 | 18.18592 | -166.35819 | 36042 ft | 443 kts | 249° |
| 2026-04-22 15:00 | 18.16123 | -166.41757 | 36044 ft | 443 kts | 249° |
| 2026-04-22 15:00 | 18.13650 | -166.47697 | 36043 ft | 443 kts | 249° |
| 2026-04-22 15:01 | 18.11175 | -166.53635 | 36042 ft | 443 kts | 249° |
| 2026-04-22 15:01 | 18.08701 | -166.59566 | 36042 ft | 443 kts | 249° |
| 2026-04-22 15:02 | 18.06226 | -166.65494 | 36043 ft | 443 kts | 249° |
| 2026-04-22 15:02 | 18.03750 | -166.71417 | 36042 ft | 442 kts | 249° |
| 2026-04-22 15:03 | 18.01270 | -166.77342 | 36044 ft | 443 kts | 249° |
| 2026-04-22 15:03 | 17.98789 | -166.83265 | 36042 ft | 443 kts | 249° |
| 2026-04-22 15:04 | 17.96308 | -166.89182 | 36035 ft | 443 kts | 248° |
| 2026-04-22 15:04 | 17.93824 | -166.95102 | 36040 ft | 443 kts | 248° |
| 2026-04-22 15:05 | 17.91342 | -167.01009 | 36039 ft | 442 kts | 248° |
| 2026-04-22 15:05 | 17.88855 | -167.06923 | 36038 ft | 443 kts | 248° |
| 2026-04-22 15:06 | 17.86366 | -167.12836 | 36043 ft | 443 kts | 248° |
| 2026-04-22 15:06 | 17.83876 | -167.18744 | 36041 ft | 442 kts | 248° |
| 2026-04-22 15:07 | 17.81383 | -167.24655 | 36041 ft | 443 kts | 248° |
| 2026-04-22 15:07 | 17.78891 | -167.30558 | 36041 ft | 443 kts | 248° |
| 2026-04-22 15:08 | 17.76396 | -167.36461 | 36038 ft | 442 kts | 248° |
| 2026-04-22 15:08 | 17.73915 | -167.42326 | 36037 ft | 443 kts | 248° |
| 2026-04-22 15:09 | 17.71416 | -167.48225 | 36035 ft | 442 kts | 248° |
| 2026-04-22 15:09 | 17.68918 | -167.54121 | 36037 ft | 443 kts | 248° |
| 2026-04-22 15:10 | 17.66415 | -167.60019 | 36036 ft | 442 kts | 248° |
| 2026-04-22 15:10 | 17.63915 | -167.65906 | 36031 ft | 442 kts | 248° |
| 2026-04-22 15:11 | 17.61414 | -167.71790 | 36034 ft | 442 kts | 248° |
| 2026-04-22 15:11 | 17.58908 | -167.77677 | 36031 ft | 442 kts | 248° |
| 2026-04-22 15:12 | 17.56401 | -167.83563 | 36030 ft | 442 kts | 248° |
| 2026-04-22 15:12 | 17.53895 | -167.89440 | 36030 ft | 442 kts | 248° |
| 2026-04-22 15:13 | 17.51384 | -167.95324 | 36040 ft | 442 kts | 248° |
| 2026-04-22 15:13 | 17.48875 | -168.01198 | 36028 ft | 441 kts | 248° |
| 2026-04-22 15:14 | 17.46367 | -168.07064 | 36028 ft | 441 kts | 248° |
| 2026-04-22 15:14 | 17.43857 | -168.12926 | 36037 ft | 441 kts | 248° |
| 2026-04-22 15:15 | 17.41344 | -168.18792 | 36026 ft | 442 kts | 248° |
| 2026-04-22 15:15 | 17.38848 | -168.24613 | 36027 ft | 441 kts | 248° |
| 2026-04-22 15:16 | 17.36341 | -168.30454 | 36027 ft | 440 kts | 248° |
| 2026-04-22 15:16 | 17.33831 | -168.36296 | 36032 ft | 440 kts | 248° |
| 2026-04-22 15:17 | 17.31322 | -168.42130 | 36025 ft | 440 kts | 248° |
| 2026-04-22 15:17 | 17.28809 | -168.47968 | 36035 ft | 440 kts | 248° |
| 2026-04-22 15:18 | 17.26296 | -168.53799 | 36026 ft | 440 kts | 248° |
| 2026-04-22 15:18 | 17.23780 | -168.59634 | 36029 ft | 440 kts | 248° |
| 2026-04-22 15:19 | 17.21263 | -168.65464 | 36036 ft | 440 kts | 248° |
| 2026-04-22 15:19 | 17.18743 | -168.71297 | 36026 ft | 439 kts | 248° |
| 2026-04-22 15:20 | 17.16227 | -168.77113 | 36033 ft | 439 kts | 248° |
| 2026-04-22 15:20 | 17.13709 | -168.82930 | 36028 ft | 439 kts | 248° |
| 2026-04-22 15:21 | 17.11190 | -168.88745 | 36026 ft | 439 kts | 248° |
| 2026-04-22 15:21 | 17.08685 | -168.94520 | 36022 ft | 439 kts | 248° |
| 2026-04-22 15:22 | 17.06170 | -169.00313 | 36023 ft | 437 kts | 248° |
| 2026-04-22 15:22 | 17.03657 | -169.06098 | 36025 ft | 437 kts | 248° |
| 2026-04-22 15:23 | 17.01145 | -169.11873 | 36021 ft | 437 kts | 247° |
| 2026-04-22 15:23 | 16.98631 | -169.17648 | 36030 ft | 436 kts | 248° |
| 2026-04-22 15:24 | 16.96118 | -169.23417 | 36021 ft | 437 kts | 248° |
| 2026-04-22 15:24 | 16.93599 | -169.29191 | 36020 ft | 436 kts | 247° |
| 2026-04-22 15:25 | 16.91082 | -169.34958 | 36021 ft | 437 kts | 248° |
| 2026-04-22 15:25 | 16.88562 | -169.40726 | 36023 ft | 437 kts | 247° |
| 2026-04-22 15:26 | 16.86043 | -169.46486 | 36021 ft | 436 kts | 247° |
| 2026-04-22 15:26 | 16.83523 | -169.52244 | 36017 ft | 436 kts | 247° |
| 2026-04-22 15:27 | 16.81021 | -169.57956 | 36021 ft | 436 kts | 247° |
| 2026-04-22 15:27 | 16.78498 | -169.63710 | 36012 ft | 436 kts | 247° |
| 2026-04-22 15:28 | 16.75979 | -169.69449 | 36014 ft | 434 kts | 247° |
| 2026-04-22 15:28 | 16.73446 | -169.75217 | 36017 ft | 435 kts | 247° |
| 2026-04-22 15:29 | 16.70942 | -169.80912 | 36021 ft | 434 kts | 247° |
| 2026-04-22 15:30 | 16.67579 | -169.88553 | 36024 ft | 433 kts | 247° |
| 2026-04-22 15:30 | 16.64654 | -169.95192 | 36022 ft | 433 kts | 247° |
| 2026-04-22 15:31 | 16.62137 | -170.00899 | 36019 ft | 433 kts | 247° |
| 2026-04-22 15:31 | 16.59616 | -170.06610 | 36017 ft | 434 kts | 247° |
| 2026-04-22 15:32 | 16.57095 | -170.12315 | 36020 ft | 433 kts | 247° |
| 2026-04-22 15:32 | 16.54572 | -170.18022 | 36016 ft | 433 kts | 247° |
| 2026-04-22 15:33 | 16.52050 | -170.23722 | 36015 ft | 433 kts | 247° |
| 2026-04-22 15:33 | 16.49528 | -170.29416 | 36013 ft | 433 kts | 247° |
| 2026-04-22 15:34 | 16.47003 | -170.35109 | 36010 ft | 433 kts | 247° |
| 2026-04-22 15:34 | 16.44481 | -170.40794 | 36014 ft | 432 kts | 247° |
| 2026-04-22 15:35 | 16.42385 | -170.45513 | 36016 ft | 432 kts | 247° |
| 2026-04-22 15:35 | 16.39433 | -170.52155 | 36011 ft | 432 kts | 247° |
| 2026-04-22 15:36 | 16.36907 | -170.57832 | 36012 ft | 433 kts | 246° |
| 2026-04-22 15:36 | 16.34375 | -170.63520 | 36011 ft | 433 kts | 246° |
| 2026-04-22 15:37 | 16.32271 | -170.68242 | 36008 ft | 433 kts | 246° |
| 2026-04-22 15:37 | 16.29736 | -170.73926 | 36011 ft | 433 kts | 246° |
| 2026-04-22 15:38 | 16.27202 | -170.79606 | 36009 ft | 433 kts | 246° |
| 2026-04-22 15:38 | 16.23395 | -170.88129 | 36005 ft | 433 kts | 246° |
| 2026-04-22 15:39 | 16.20857 | -170.93805 | 36007 ft | 433 kts | 246° |
| 2026-04-22 15:39 | 16.18313 | -170.99489 | 36013 ft | 433 kts | 246° |
| 2026-04-22 15:40 | 16.15769 | -171.05168 | 36002 ft | 433 kts | 246° |
| 2026-04-22 15:40 | 16.13221 | -171.10853 | 36009 ft | 434 kts | 246° |
| 2026-04-22 15:41 | 16.10669 | -171.16541 | 36008 ft | 434 kts | 246° |
| 2026-04-22 15:41 | 16.08114 | -171.22230 | 36008 ft | 434 kts | 246° |
| 2026-04-22 15:42 | 16.05560 | -171.27912 | 36007 ft | 434 kts | 246° |
| 2026-04-22 15:42 | 16.03002 | -171.33601 | 36002 ft | 434 kts | 246° |
| 2026-04-22 15:43 | 16.00441 | -171.39288 | 36004 ft | 435 kts | 246° |
| 2026-04-22 15:43 | 15.97877 | -171.44980 | 36004 ft | 435 kts | 246° |
| 2026-04-22 15:44 | 15.95314 | -171.50665 | 36003 ft | 434 kts | 246° |
| 2026-04-22 15:44 | 15.92716 | -171.56333 | 36002 ft | 435 kts | 244° |
| 2026-04-22 15:45 | 15.90055 | -171.61919 | 36001 ft | 434 kts | 245° |
| 2026-04-22 15:45 | 15.87386 | -171.67553 | 35998 ft | 435 kts | 245° |
| 2026-04-22 15:46 | 15.84714 | -171.73193 | 35999 ft | 435 kts | 245° |
| 2026-04-22 15:46 | 15.82039 | -171.78833 | 35999 ft | 435 kts | 245° |
| 2026-04-22 15:47 | 15.79360 | -171.84476 | 36000 ft | 435 kts | 245° |
| 2026-04-22 15:47 | 15.76684 | -171.90111 | 35998 ft | 435 kts | 245° |
| 2026-04-22 15:48 | 15.74005 | -171.95747 | 35998 ft | 435 kts | 245° |
| 2026-04-22 15:48 | 15.71325 | -172.01381 | 35998 ft | 435 kts | 245° |
| 2026-04-22 15:49 | 15.68642 | -172.07016 | 35998 ft | 435 kts | 245° |
| 2026-04-22 15:49 | 15.65959 | -172.12647 | 35996 ft | 435 kts | 245° |
| 2026-04-22 15:50 | 15.63274 | -172.18276 | 35994 ft | 435 kts | 245° |
| 2026-04-22 15:50 | 15.60588 | -172.23904 | 35993 ft | 435 kts | 245° |
| 2026-04-22 15:51 | 15.57901 | -172.29531 | 35993 ft | 435 kts | 245° |
| 2026-04-22 15:51 | 15.55213 | -172.35153 | 35994 ft | 435 kts | 245° |
| 2026-04-22 15:52 | 15.52522 | -172.40778 | 35992 ft | 435 kts | 244° |
| 2026-04-22 15:52 | 15.49833 | -172.46395 | 35991 ft | 434 kts | 244° |
| 2026-04-22 15:53 | 15.47151 | -172.51992 | 35994 ft | 433 kts | 244° |
| 2026-04-22 15:53 | 15.44471 | -172.57582 | 35991 ft | 433 kts | 244° |
| 2026-04-22 15:54 | 15.41788 | -172.63172 | 35990 ft | 433 kts | 244° |
| 2026-04-22 15:54 | 15.39105 | -172.68759 | 35990 ft | 433 kts | 244° |
| 2026-04-22 15:55 | 15.36421 | -172.74343 | 35991 ft | 433 kts | 244° |
| 2026-04-22 15:55 | 15.33735 | -172.79926 | 35991 ft | 433 kts | 244° |
| 2026-04-22 15:56 | 15.31047 | -172.85510 | 35988 ft | 433 kts | 244° |
| 2026-04-22 15:56 | 15.28361 | -172.91084 | 35988 ft | 433 kts | 244° |
| 2026-04-22 15:57 | 15.25672 | -172.96664 | 35989 ft | 433 kts | 244° |
| 2026-04-22 15:57 | 15.22983 | -173.02237 | 35985 ft | 432 kts | 244° |
| 2026-04-22 15:58 | 15.20293 | -173.07807 | 35985 ft | 433 kts | 244° |
| 2026-04-22 15:58 | 15.17600 | -173.13378 | 35986 ft | 433 kts | 244° |
| 2026-04-22 15:59 | 15.14924 | -173.18912 | 35985 ft | 432 kts | 244° |
| 2026-04-22 15:59 | 15.12231 | -173.24476 | 35983 ft | 433 kts | 244° |
| 2026-04-22 16:00 | 15.09537 | -173.30039 | 35984 ft | 432 kts | 244° |
| 2026-04-22 16:00 | 15.06841 | -173.35600 | 35984 ft | 432 kts | 244° |
| 2026-04-22 16:01 | 15.04147 | -173.41155 | 35982 ft | 432 kts | 244° |
| 2026-04-22 16:01 | 15.01450 | -173.46710 | 35979 ft | 432 kts | 244° |
| 2026-04-22 16:02 | 14.98750 | -173.52268 | 35980 ft | 432 kts | 244° |
| 2026-04-22 16:02 | 14.96051 | -173.57820 | 35981 ft | 432 kts | 244° |
| 2026-04-22 16:03 | 14.93350 | -173.63372 | 35980 ft | 432 kts | 244° |
| 2026-04-22 16:03 | 14.90646 | -173.68925 | 35979 ft | 432 kts | 244° |
| 2026-04-22 16:04 | 14.87941 | -173.74475 | 35978 ft | 432 kts | 244° |
| 2026-04-22 16:04 | 14.85237 | -173.80022 | 35980 ft | 432 kts | 244° |
| 2026-04-22 16:05 | 14.82540 | -173.85549 | 35980 ft | 430 kts | 244° |
| 2026-04-22 16:05 | 14.79847 | -173.91063 | 35983 ft | 430 kts | 244° |
| 2026-04-22 16:06 | 14.77150 | -173.96580 | 35985 ft | 431 kts | 244° |
| 2026-04-22 16:06 | 14.74469 | -174.02062 | 35983 ft | 430 kts | 244° |
| 2026-04-22 16:07 | 14.71765 | -174.07587 | 35983 ft | 431 kts | 244° |
| 2026-04-22 16:07 | 14.69063 | -174.13105 | 35977 ft | 430 kts | 244° |
| 2026-04-22 16:08 | 14.66360 | -174.18618 | 35974 ft | 430 kts | 244° |
| 2026-04-22 16:08 | 14.63654 | -174.24136 | 35980 ft | 431 kts | 244° |
| 2026-04-22 16:09 | 14.60944 | -174.29655 | 35979 ft | 431 kts | 243° |
| 2026-04-22 16:09 | 14.58235 | -174.35172 | 35976 ft | 431 kts | 243° |
| 2026-04-22 16:10 | 14.55524 | -174.40686 | 35976 ft | 431 kts | 243° |
| 2026-04-22 16:10 | 14.52810 | -174.46203 | 35974 ft | 431 kts | 243° |
| 2026-04-22 16:11 | 14.50096 | -174.51716 | 35973 ft | 431 kts | 243° |
| 2026-04-22 16:11 | 14.47382 | -174.57225 | 35973 ft | 430 kts | 243° |
| 2026-04-22 16:12 | 14.44670 | -174.62727 | 35974 ft | 430 kts | 243° |
| 2026-04-22 16:12 | 14.41972 | -174.68195 | 35977 ft | 430 kts | 243° |
| 2026-04-22 16:13 | 14.39257 | -174.73696 | 35974 ft | 430 kts | 243° |
| 2026-04-22 16:13 | 14.36539 | -174.79196 | 35974 ft | 431 kts | 243° |
| 2026-04-22 16:14 | 14.33820 | -174.84696 | 35972 ft | 430 kts | 243° |
| 2026-04-22 16:14 | 14.31098 | -174.90199 | 35973 ft | 431 kts | 243° |
| 2026-04-22 16:15 | 14.28377 | -174.95695 | 35968 ft | 430 kts | 243° |
| 2026-04-22 16:15 | 14.25653 | -175.01192 | 35970 ft | 430 kts | 243° |
| 2026-04-22 16:16 | 14.22931 | -175.06685 | 35968 ft | 431 kts | 243° |
| 2026-04-22 16:16 | 14.20203 | -175.12181 | 35974 ft | 431 kts | 243° |
| 2026-04-22 16:17 | 14.17474 | -175.17677 | 35968 ft | 431 kts | 243° |
| 2026-04-22 16:17 | 14.14747 | -175.23167 | 35972 ft | 429 kts | 243° |
| 2026-04-22 16:18 | 14.12033 | -175.28626 | 35967 ft | 428 kts | 243° |
| 2026-04-22 16:18 | 14.09317 | -175.34085 | 35966 ft | 428 kts | 243° |
| 2026-04-22 16:19 | 14.06599 | -175.39544 | 35971 ft | 428 kts | 243° |
| 2026-04-22 16:19 | 14.03900 | -175.44962 | 35967 ft | 428 kts | 243° |
| 2026-04-22 16:20 | 14.01178 | -175.50422 | 35962 ft | 428 kts | 243° |
| 2026-04-22 16:20 | 13.98439 | -175.55912 | 35964 ft | 428 kts | 243° |
| 2026-04-22 16:21 | 13.95714 | -175.61370 | 35967 ft | 428 kts | 243° |
| 2026-04-22 16:21 | 13.93009 | -175.66784 | 35966 ft | 428 kts | 243° |
| 2026-04-22 16:22 | 13.88921 | -175.74961 | 35964 ft | 428 kts | 243° |
| 2026-04-22 16:23 | 13.84830 | -175.83134 | 35966 ft | 428 kts | 243° |
| 2026-04-22 16:23 | 13.82103 | -175.88579 | 35955 ft | 428 kts | 243° |
| 2026-04-22 16:24 | 13.78028 | -175.96706 | 35967 ft | 425 kts | 243° |
| 2026-04-22 16:25 | 13.75757 | -176.01233 | 35958 ft | 425 kts | 243° |
| 2026-04-22 16:25 | 13.71688 | -176.09336 | 35964 ft | 425 kts | 243° |
| 2026-04-22 16:26 | 13.68973 | -176.14740 | 35969 ft | 425 kts | 243° |
| 2026-04-22 16:26 | 13.66257 | -176.20140 | 35957 ft | 426 kts | 242° |
| 2026-04-22 16:27 | 13.63531 | -176.25556 | 35966 ft | 427 kts | 242° |
| 2026-04-22 16:27 | 13.60803 | -176.30974 | 35959 ft | 427 kts | 242° |
| 2026-04-22 16:28 | 13.58076 | -176.36386 | 35970 ft | 426 kts | 242° |
| 2026-04-22 16:28 | 13.55347 | -176.41799 | 35964 ft | 426 kts | 242° |
| 2026-04-22 16:29 | 13.52618 | -176.47207 | 35949 ft | 426 kts | 242° |
| 2026-04-22 16:29 | 13.49886 | -176.52618 | 35955 ft | 426 kts | 242° |
| 2026-04-22 16:30 | 13.47155 | -176.58024 | 35951 ft | 426 kts | 242° |
| 2026-04-22 16:30 | 13.44432 | -176.63411 | 35955 ft | 424 kts | 242° |
| 2026-04-22 16:31 | 13.41712 | -176.68788 | 35961 ft | 424 kts | 242° |
| 2026-04-22 16:31 | 13.38994 | -176.74158 | 35960 ft | 424 kts | 242° |
| 2026-04-22 16:32 | 13.36271 | -176.79533 | 35955 ft | 424 kts | 242° |
| 2026-04-22 16:32 | 13.33551 | -176.84900 | 35957 ft | 424 kts | 242° |
| 2026-04-22 16:33 | 13.30829 | -176.90268 | 35952 ft | 424 kts | 242° |
| 2026-04-22 16:33 | 13.28104 | -176.95637 | 35953 ft | 424 kts | 242° |
| 2026-04-22 16:34 | 13.25375 | -177.01012 | 35964 ft | 426 kts | 242° |
| 2026-04-22 16:34 | 13.22636 | -177.06402 | 35960 ft | 426 kts | 242° |
| 2026-04-22 16:35 | 13.19896 | -177.11790 | 35960 ft | 426 kts | 242° |
| 2026-04-22 16:35 | 13.17160 | -177.17169 | 35948 ft | 425 kts | 242° |
| 2026-04-22 16:36 | 13.14422 | -177.22547 | 35949 ft | 425 kts | 242° |
| 2026-04-22 16:36 | 13.11700 | -177.27890 | 35954 ft | 425 kts | 242° |
| 2026-04-22 16:37 | 13.08967 | -177.33251 | 35944 ft | 423 kts | 242° |
| 2026-04-22 16:37 | 13.06237 | -177.38603 | 35959 ft | 424 kts | 242° |
| 2026-04-22 16:38 | 13.03505 | -177.43957 | 35941 ft | 423 kts | 242° |
| 2026-04-22 16:38 | 13.00779 | -177.49297 | 35980 ft | 421 kts | 242° |
| 2026-04-22 16:39 | 12.98044 | -177.54646 | 35939 ft | 424 kts | 242° |
| 2026-04-22 16:39 | 12.95313 | -177.59988 | 35952 ft | 424 kts | 242° |
| 2026-04-22 16:40 | 12.92575 | -177.65340 | 35946 ft | 423 kts | 242° |
| 2026-04-22 16:41 | 12.88467 | -177.73361 | 35944 ft | 424 kts | 242° |
| 2026-04-22 16:41 | 12.85720 | -177.78722 | 35942 ft | 425 kts | 242° |
| 2026-04-22 16:42 | 12.82975 | -177.84075 | 35947 ft | 425 kts | 242° |
| 2026-04-22 16:42 | 12.80230 | -177.89426 | 35955 ft | 424 kts | 242° |
| 2026-04-22 16:43 | 12.77482 | -177.94780 | 35955 ft | 424 kts | 242° |
| 2026-04-22 16:43 | 12.74738 | -178.00121 | 35948 ft | 422 kts | 242° |
| 2026-04-22 16:44 | 12.72032 | -178.05385 | 35948 ft | 420 kts | 242° |
| 2026-04-22 16:44 | 12.69309 | -178.10685 | 35874 ft | 420 kts | 242° |
| 2026-04-22 16:45 | 12.66580 | -178.15984 | 35958 ft | 422 kts | 242° |
| 2026-04-22 16:45 | 12.63841 | -178.21301 | 35939 ft | 421 kts | 242° |
| 2026-04-22 16:46 | 12.61108 | -178.26606 | 35936 ft | 421 kts | 242° |
| 2026-04-22 16:46 | 12.58371 | -178.31915 | 35938 ft | 421 kts | 242° |
| 2026-04-22 16:47 | 12.55636 | -178.37218 | 35947 ft | 421 kts | 242° |
| 2026-04-22 16:47 | 12.52897 | -178.42523 | 35944 ft | 421 kts | 242° |
| 2026-04-22 16:48 | 12.50160 | -178.47824 | 35946 ft | 421 kts | 242° |
| 2026-04-22 16:48 | 12.47416 | -178.53135 | 35948 ft | 423 kts | 242° |
| 2026-04-22 16:49 | 12.44664 | -178.58457 | 35934 ft | 423 kts | 242° |
| 2026-04-22 16:49 | 12.41913 | -178.63772 | 35937 ft | 423 kts | 242° |
| 2026-04-22 16:50 | 12.39161 | -178.69089 | 35944 ft | 421 kts | 242° |
| 2026-04-22 16:50 | 12.36433 | -178.74356 | 35940 ft | 418 kts | 242° |
| 2026-04-22 16:51 | 12.33723 | -178.79586 | 35931 ft | 419 kts | 242° |
| 2026-04-22 16:51 | 12.30995 | -178.84846 | 35938 ft | 419 kts | 242° |
| 2026-04-22 16:52 | 12.28260 | -178.90116 | 35944 ft | 420 kts | 242° |
| 2026-04-22 16:52 | 12.25521 | -178.95391 | 35934 ft | 420 kts | 242° |
| 2026-04-22 16:53 | 12.22782 | -179.00665 | 35931 ft | 420 kts | 242° |
| 2026-04-22 16:53 | 12.20039 | -179.05942 | 35937 ft | 420 kts | 242° |
| 2026-04-22 16:54 | 12.17299 | -179.11211 | 35933 ft | 420 kts | 242° |
| 2026-04-22 16:54 | 12.14557 | -179.16480 | 35944 ft | 420 kts | 242° |
| 2026-04-22 16:55 | 12.11815 | -179.21747 | 35938 ft | 420 kts | 242° |
| 2026-04-22 16:55 | 12.09068 | -179.27021 | 35935 ft | 421 kts | 242° |
| 2026-04-22 16:56 | 12.06312 | -179.32309 | 35932 ft | 422 kts | 242° |
| 2026-04-22 16:56 | 12.03556 | -179.37593 | 35934 ft | 421 kts | 242° |
| 2026-04-22 16:57 | 12.00814 | -179.42850 | 35927 ft | 418 kts | 241° |
| 2026-04-22 16:57 | 11.98079 | -179.48090 | 35927 ft | 418 kts | 241° |
| 2026-04-22 16:58 | 11.95802 | -179.52449 | 35929 ft | 418 kts | 241° |
| 2026-04-22 16:58 | 11.92602 | -179.58572 | 35927 ft | 418 kts | 241° |
| 2026-04-22 16:59 | 11.89865 | -179.63807 | 35930 ft | 418 kts | 241° |
| 2026-04-22 16:59 | 11.87143 | -179.69009 | 35926 ft | 418 kts | 241° |
| 2026-04-22 17:00 | 11.84384 | -179.74279 | 35924 ft | 418 kts | 241° |
| 2026-04-22 17:00 | 11.80295 | -179.82085 | 35933 ft | 418 kts | 241° |
| 2026-04-22 17:01 | 11.77554 | -179.87314 | 35925 ft | 418 kts | 241° |
| 2026-04-22 17:01 | 11.74812 | -179.92542 | 35923 ft | 418 kts | 241° |
| 2026-04-22 17:02 | 11.72069 | -179.97769 | 35928 ft | 418 kts | 241° |
| 2026-04-22 17:02 | 11.69204 | 179.97070 | 35932 ft | 419 kts | 239° |
| 2026-04-22 17:03 | 11.66300 | 179.91912 | 35925 ft | 419 kts | 240° |
| 2026-04-22 17:03 | 11.63404 | 179.86760 | 35926 ft | 419 kts | 240° |
| 2026-04-22 17:04 | 11.60506 | 179.81605 | 35924 ft | 419 kts | 239° |
| 2026-04-22 17:04 | 11.57607 | 179.76450 | 35922 ft | 419 kts | 240° |
| 2026-04-22 17:05 | 11.54711 | 179.71302 | 35921 ft | 419 kts | 239° |
| 2026-04-22 17:05 | 11.51811 | 179.66151 | 35922 ft | 419 kts | 239° |
| 2026-04-22 17:06 | 11.48914 | 179.61007 | 35926 ft | 418 kts | 239° |
| 2026-04-22 17:06 | 11.46006 | 179.55847 | 35922 ft | 420 kts | 239° |
| 2026-04-22 17:07 | 11.43095 | 179.50684 | 35922 ft | 420 kts | 239° |
| 2026-04-22 17:07 | 11.40182 | 179.45520 | 35923 ft | 420 kts | 239° |
| 2026-04-22 17:08 | 11.37266 | 179.40355 | 35925 ft | 420 kts | 239° |
| 2026-04-22 17:08 | 11.34352 | 179.35194 | 35924 ft | 420 kts | 239° |
| 2026-04-22 17:09 | 11.31432 | 179.30028 | 35932 ft | 420 kts | 239° |
| 2026-04-22 17:09 | 11.28545 | 179.24920 | 35918 ft | 418 kts | 239° |
| 2026-04-22 17:10 | 11.25641 | 179.19785 | 35921 ft | 419 kts | 239° |
| 2026-04-22 17:10 | 11.22730 | 179.14641 | 35922 ft | 419 kts | 239° |
| 2026-04-22 17:11 | 11.19816 | 179.09494 | 35922 ft | 419 kts | 239° |
| 2026-04-22 17:11 | 11.16905 | 179.04355 | 35924 ft | 419 kts | 239° |
| 2026-04-22 17:12 | 11.14484 | 179.00083 | 35922 ft | 419 kts | 239° |
| 2026-04-22 17:12 | 11.11568 | 178.94940 | 35922 ft | 419 kts | 239° |
| 2026-04-22 17:13 | 11.08654 | 178.89803 | 35922 ft | 419 kts | 239° |
| 2026-04-22 17:13 | 11.05738 | 178.84665 | 35920 ft | 419 kts | 239° |
| 2026-04-22 17:14 | 11.02811 | 178.79509 | 35923 ft | 421 kts | 239° |
| 2026-04-22 17:14 | 10.99881 | 178.74351 | 35918 ft | 421 kts | 239° |
| 2026-04-22 17:15 | 10.96948 | 178.69191 | 35919 ft | 421 kts | 239° |
| 2026-04-22 17:15 | 10.94015 | 178.64034 | 35921 ft | 421 kts | 239° |
| 2026-04-22 17:16 | 10.91089 | 178.58891 | 35918 ft | 419 kts | 239° |
| 2026-04-22 17:16 | 10.88165 | 178.53754 | 35919 ft | 419 kts | 239° |
| 2026-04-22 17:17 | 10.85244 | 178.48624 | 35914 ft | 419 kts | 239° |
| 2026-04-22 17:17 | 10.82317 | 178.43488 | 35916 ft | 421 kts | 239° |
| 2026-04-22 17:18 | 10.79380 | 178.38334 | 35914 ft | 420 kts | 239° |
| 2026-04-22 17:18 | 10.76445 | 178.33189 | 35915 ft | 421 kts | 239° |
| 2026-04-22 17:19 | 10.70569 | 178.22893 | 35912 ft | 421 kts | 239° |
| 2026-04-22 17:20 | 10.64690 | 178.12603 | 35911 ft | 421 kts | 239° |
| 2026-04-22 17:21 | 10.60297 | 178.04920 | 35913 ft | 422 kts | 239° |
| 2026-04-22 17:22 | 10.55869 | 177.97182 | 35905 ft | 422 kts | 239° |
| 2026-04-22 17:23 | 10.51459 | 177.89477 | 35911 ft | 420 kts | 239° |
| 2026-04-22 17:23 | 10.47051 | 177.81785 | 35912 ft | 420 kts | 239° |
| 2026-04-22 17:24 | 10.44110 | 177.76656 | 35910 ft | 420 kts | 239° |
| 2026-04-22 17:24 | 10.41171 | 177.71531 | 35909 ft | 420 kts | 239° |
| 2026-04-22 17:25 | 10.38224 | 177.66396 | 35909 ft | 421 kts | 239° |
| 2026-04-22 17:25 | 10.35276 | 177.61261 | 35909 ft | 421 kts | 239° |
| 2026-04-22 17:26 | 10.32326 | 177.56126 | 35906 ft | 421 kts | 239° |
| 2026-04-22 17:26 | 10.29375 | 177.50990 | 35910 ft | 421 kts | 239° |
| 2026-04-22 17:27 | 10.26423 | 177.45855 | 35905 ft | 421 kts | 239° |
| 2026-04-22 17:27 | 10.23472 | 177.40724 | 35905 ft | 421 kts | 239° |
| 2026-04-22 17:28 | 10.20522 | 177.35598 | 35906 ft | 421 kts | 239° |
| 2026-04-22 17:28 | 10.17571 | 177.30472 | 35905 ft | 420 kts | 239° |
| 2026-04-22 17:29 | 10.14621 | 177.25350 | 35903 ft | 420 kts | 239° |
| 2026-04-22 17:29 | 10.11669 | 177.20227 | 35903 ft | 420 kts | 239° |
| 2026-04-22 17:30 | 10.08721 | 177.15112 | 35905 ft | 420 kts | 239° |
| 2026-04-22 17:30 | 10.05767 | 177.09991 | 35905 ft | 420 kts | 239° |
| 2026-04-22 17:31 | 10.02816 | 177.04874 | 35903 ft | 420 kts | 239° |
| 2026-04-22 17:31 | 9.99913 | 176.99726 | 35899 ft | 420 kts | 243° |
| 2026-04-22 17:32 | 9.97311 | 176.94412 | 35903 ft | 421 kts | 242° |
| 2026-04-22 17:32 | 9.94662 | 176.89091 | 35903 ft | 424 kts | 242° |
| 2026-04-22 17:33 | 9.92003 | 176.83764 | 35901 ft | 423 kts | 242° |
| 2026-04-22 17:33 | 9.89340 | 176.78434 | 35902 ft | 423 kts | 242° |
| 2026-04-22 17:34 | 9.86678 | 176.73109 | 35900 ft | 423 kts | 242° |
| 2026-04-22 17:34 | 9.84015 | 176.67783 | 35900 ft | 423 kts | 242° |
| 2026-04-22 17:35 | 9.81369 | 176.62493 | 35893 ft | 423 kts | 242° |
| 2026-04-22 17:35 | 9.78716 | 176.57194 | 35893 ft | 420 kts | 242° |
| 2026-04-22 17:36 | 9.76071 | 176.51911 | 35898 ft | 421 kts | 242° |
| 2026-04-22 17:36 | 9.73420 | 176.46620 | 35898 ft | 420 kts | 242° |
| 2026-04-22 17:37 | 9.70770 | 176.41332 | 35898 ft | 421 kts | 242° |
| 2026-04-22 17:37 | 9.68120 | 176.36048 | 35897 ft | 421 kts | 242° |
| 2026-04-22 17:38 | 9.65470 | 176.30764 | 35897 ft | 421 kts | 242° |
| 2026-04-22 17:38 | 9.62818 | 176.25482 | 35898 ft | 420 kts | 242° |
| 2026-04-22 17:39 | 9.60165 | 176.20198 | 35898 ft | 420 kts | 242° |
| 2026-04-22 17:40 | 9.56165 | 176.12236 | 35895 ft | 425 kts | 242° |
| 2026-04-22 17:40 | 9.53486 | 176.06908 | 35895 ft | 424 kts | 242° |
| 2026-04-22 17:41 | 9.50808 | 176.01583 | 35895 ft | 424 kts | 242° |
| 2026-04-22 17:41 | 9.48128 | 175.96257 | 35895 ft | 424 kts | 242° |
| 2026-04-22 17:42 | 9.45449 | 175.90935 | 35897 ft | 424 kts | 242° |
| 2026-04-22 17:42 | 9.43223 | 175.86516 | 35897 ft | 424 kts | 242° |
| 2026-04-22 17:43 | 9.40105 | 175.80326 | 35897 ft | 421 kts | 242° |
| 2026-04-22 17:43 | 9.37427 | 175.75015 | 35897 ft | 425 kts | 242° |
| 2026-04-22 17:44 | 9.34740 | 175.69686 | 35892 ft | 425 kts | 242° |
| 2026-04-22 17:44 | 9.32054 | 175.64364 | 35894 ft | 425 kts | 242° |
| 2026-04-22 17:45 | 9.29367 | 175.59041 | 35900 ft | 425 kts | 242° |
| 2026-04-22 17:45 | 9.26678 | 175.53716 | 35898 ft | 424 kts | 242° |
| 2026-04-22 17:46 | 9.23992 | 175.48397 | 35895 ft | 425 kts | 242° |
| 2026-04-22 17:46 | 9.21319 | 175.43109 | 35898 ft | 424 kts | 242° |
| 2026-04-22 17:47 | 9.18608 | 175.37749 | 35897 ft | 426 kts | 242° |
| 2026-04-22 17:47 | 9.15905 | 175.32405 | 35894 ft | 426 kts | 242° |
| 2026-04-22 17:48 | 9.13660 | 175.27969 | 35894 ft | 426 kts | 242° |
| 2026-04-22 17:48 | 9.10502 | 175.21732 | 35896 ft | 426 kts | 242° |
| 2026-04-22 17:49 | 9.07798 | 175.16396 | 35899 ft | 426 kts | 242° |
| 2026-04-22 17:49 | 9.05095 | 175.11061 | 35889 ft | 426 kts | 242° |
| 2026-04-22 17:50 | 9.02394 | 175.05733 | 35892 ft | 426 kts | 242° |
| 2026-04-22 17:50 | 8.99687 | 175.00397 | 35894 ft | 427 kts | 242° |
| 2026-04-22 17:51 | 8.96992 | 174.95086 | 35887 ft | 427 kts | 242° |
| 2026-04-22 17:51 | 8.94261 | 174.89707 | 35889 ft | 427 kts | 242° |
| 2026-04-22 17:52 | 8.91548 | 174.84365 | 35894 ft | 427 kts | 242° |
| 2026-04-22 17:52 | 8.88834 | 174.79023 | 35889 ft | 427 kts | 242° |
| 2026-04-22 17:53 | 8.86121 | 174.73686 | 35884 ft | 427 kts | 242° |
| 2026-04-22 17:53 | 8.83404 | 174.68343 | 35890 ft | 427 kts | 242° |
| 2026-04-22 17:54 | 8.80687 | 174.63002 | 35891 ft | 428 kts | 242° |
| 2026-04-22 17:54 | 8.77963 | 174.57650 | 35890 ft | 428 kts | 242° |
| 2026-04-22 17:55 | 8.75700 | 174.53206 | 35891 ft | 428 kts | 242° |
| 2026-04-22 17:55 | 8.72513 | 174.46950 | 35883 ft | 428 kts | 242° |
| 2026-04-22 17:56 | 8.69804 | 174.41635 | 35886 ft | 428 kts | 242° |
| 2026-04-22 17:56 | 8.67520 | 174.37155 | 35877 ft | 428 kts | 241° |
| 2026-04-22 17:57 | 8.64791 | 174.31803 | 35883 ft | 428 kts | 241° |
| 2026-04-22 17:57 | 8.62068 | 174.26465 | 35884 ft | 428 kts | 241° |
| 2026-04-22 17:58 | 8.59332 | 174.21106 | 35884 ft | 429 kts | 241° |
| 2026-04-22 17:58 | 8.56599 | 174.15754 | 35884 ft | 429 kts | 241° |
| 2026-04-22 17:59 | 8.53864 | 174.10400 | 35884 ft | 429 kts | 241° |
| 2026-04-22 17:59 | 8.51129 | 174.05048 | 35883 ft | 429 kts | 241° |
| 2026-04-22 18:00 | 8.48394 | 173.99699 | 35883 ft | 429 kts | 241° |
| 2026-04-22 18:00 | 8.45655 | 173.94343 | 35886 ft | 429 kts | 241° |
| 2026-04-22 18:01 | 8.42920 | 173.88996 | 35878 ft | 430 kts | 241° |
| 2026-04-22 18:01 | 8.40172 | 173.83627 | 35882 ft | 429 kts | 241° |
| 2026-04-22 18:02 | 8.37423 | 173.78254 | 35923 ft | 433 kts | 241° |
| 2026-04-22 18:02 | 8.34671 | 173.72887 | 35890 ft | 430 kts | 241° |
| 2026-04-22 18:03 | 8.31911 | 173.67504 | 35911 ft | 431 kts | 241° |
| 2026-04-22 18:03 | 8.29155 | 173.62130 | 35868 ft | 430 kts | 241° |
| 2026-04-22 18:04 | 8.26400 | 173.56758 | 35886 ft | 431 kts | 241° |
| 2026-04-22 18:04 | 8.23643 | 173.51380 | 35883 ft | 430 kts | 240° |
| 2026-04-22 18:05 | 8.20874 | 173.45991 | 35880 ft | 430 kts | 241° |
| 2026-04-22 18:05 | 8.18106 | 173.40602 | 35879 ft | 433 kts | 241° |
| 2026-04-22 18:06 | 8.15335 | 173.35209 | 35887 ft | 432 kts | 241° |
| 2026-04-22 18:06 | 8.12568 | 173.29826 | 35895 ft | 432 kts | 241° |
| 2026-04-22 18:07 | 8.09799 | 173.24440 | 35886 ft | 433 kts | 241° |
| 2026-04-22 18:07 | 8.07021 | 173.19040 | 35882 ft | 433 kts | 241° |
| 2026-04-22 18:08 | 8.04244 | 173.13644 | 35888 ft | 434 kts | 241° |
| 2026-04-22 18:08 | 8.01459 | 173.08233 | 35882 ft | 435 kts | 241° |
| 2026-04-22 18:09 | 7.98671 | 173.02819 | 35882 ft | 434 kts | 241° |
| 2026-04-22 18:09 | 7.95929 | 172.97496 | 35369 ft | 423 kts | 241° |
| 2026-04-22 18:09 | 7.94571 | 172.94861 | 34740 ft | 424 kts | 241° |
| 2026-04-22 18:10 | 7.93213 | 172.92225 | 34158 ft | 424 kts | 241° |
| 2026-04-22 18:10 | 7.91857 | 172.89593 | 33632 ft | 422 kts | 241° |
| 2026-04-22 18:10 | 7.90503 | 172.86968 | 33076 ft | 420 kts | 241° |
| 2026-04-22 18:10 | 7.89158 | 172.84359 | 32571 ft | 418 kts | 242° |
| 2026-04-22 18:11 | 7.87821 | 172.81768 | 32083 ft | 415 kts | 242° |
| 2026-04-22 18:11 | 7.86492 | 172.79192 | 31607 ft | 413 kts | 242° |
| 2026-04-22 18:11 | 7.85168 | 172.76627 | 31137 ft | 411 kts | 242° |
| 2026-04-22 18:11 | 7.83868 | 172.74106 | 30675 ft | 409 kts | 242° |
| 2026-04-22 18:12 | 7.82558 | 172.71569 | 30205 ft | 407 kts | 242° |
| 2026-04-22 18:12 | 7.81253 | 172.69040 | 29704 ft | 406 kts | 242° |
| 2026-04-22 18:12 | 7.80373 | 172.67338 | 29353 ft | 405 kts | 242° |
| 2026-04-22 18:12 | 7.78659 | 172.64019 | 28746 ft | 401 kts | 242° |
| 2026-04-22 18:13 | 7.77378 | 172.61538 | 28321 ft | 397 kts | 242° |
| 2026-04-22 18:13 | 7.76108 | 172.59079 | 27891 ft | 394 kts | 242° |
| 2026-04-22 18:13 | 7.74846 | 172.56637 | 27475 ft | 391 kts | 241° |
| 2026-04-22 18:13 | 7.73593 | 172.54213 | 27053 ft | 389 kts | 241° |
| 2026-04-22 18:14 | 7.72346 | 172.51801 | 26641 ft | 386 kts | 241° |
| 2026-04-22 18:14 | 7.71108 | 172.49406 | 26237 ft | 384 kts | 241° |
| 2026-04-22 18:14 | 7.69876 | 172.47022 | 25838 ft | 382 kts | 241° |
| 2026-04-22 18:14 | 7.68650 | 172.44651 | 25441 ft | 381 kts | 241° |
| 2026-04-22 18:15 | 7.67426 | 172.42287 | 25048 ft | 379 kts | 241° |
| 2026-04-22 18:15 | 7.66209 | 172.39933 | 24657 ft | 378 kts | 241° |
| 2026-04-22 18:15 | 7.64995 | 172.37586 | 24255 ft | 377 kts | 241° |
| 2026-04-22 18:15 | 7.63783 | 172.35245 | 23878 ft | 376 kts | 241° |
| 2026-04-22 18:16 | 7.62574 | 172.32907 | 23484 ft | 376 kts | 241° |
| 2026-04-22 18:16 | 7.61364 | 172.30570 | 23032 ft | 375 kts | 241° |
| 2026-04-22 18:16 | 7.60159 | 172.28242 | 22620 ft | 373 kts | 241° |
| 2026-04-22 18:16 | 7.58963 | 172.25932 | 22228 ft | 371 kts | 240° |
| 2026-04-22 18:17 | 7.57773 | 172.23636 | 21854 ft | 369 kts | 240° |
| 2026-04-22 18:17 | 7.56589 | 172.21348 | 21475 ft | 366 kts | 241° |
| 2026-04-22 18:17 | 7.55412 | 172.19078 | 21105 ft | 365 kts | 241° |
| 2026-04-22 18:17 | 7.54242 | 172.16818 | 20739 ft | 363 kts | 241° |
| 2026-04-22 18:18 | 7.53078 | 172.14571 | 20368 ft | 361 kts | 241° |
| 2026-04-22 18:18 | 7.51918 | 172.12334 | 19997 ft | 360 kts | 241° |
| 2026-04-22 18:18 | 7.50764 | 172.10106 | 19631 ft | 357 kts | 241° |
| 2026-04-22 18:18 | 7.49618 | 172.07896 | 19257 ft | 355 kts | 241° |
| 2026-04-22 18:19 | 7.48477 | 172.05696 | 18908 ft | 353 kts | 241° |
| 2026-04-22 18:19 | 7.47345 | 172.03513 | 18548 ft | 351 kts | 241° |
| 2026-04-22 18:19 | 7.46220 | 172.01344 | 18193 ft | 349 kts | 241° |
| 2026-04-22 18:19 | 7.45100 | 171.99185 | 17787 ft | 347 kts | 241° |
| 2026-04-22 18:20 | 7.43989 | 171.97042 | 17417 ft | 343 kts | 241° |
| 2026-04-22 18:20 | 7.42888 | 171.94920 | 17057 ft | 340 kts | 241° |
| 2026-04-22 18:20 | 7.41797 | 171.92819 | 16712 ft | 337 kts | 241° |
| 2026-04-22 18:20 | 7.40715 | 171.90732 | 16366 ft | 334 kts | 241° |
| 2026-04-22 18:21 | 7.39645 | 171.88671 | 16029 ft | 331 kts | 242° |
| 2026-04-22 18:21 | 7.38580 | 171.86619 | 15689 ft | 329 kts | 242° |
| 2026-04-22 18:21 | 7.37524 | 171.84587 | 15344 ft | 326 kts | 242° |
| 2026-04-22 18:21 | 7.36477 | 171.82569 | 15011 ft | 324 kts | 242° |
| 2026-04-22 18:22 | 7.35437 | 171.80567 | 14678 ft | 322 kts | 242° |
| 2026-04-22 18:22 | 7.34401 | 171.78572 | 14347 ft | 320 kts | 242° |
| 2026-04-22 18:22 | 7.33373 | 171.76593 | 14018 ft | 319 kts | 242° |
| 2026-04-22 18:22 | 7.32343 | 171.74612 | 13682 ft | 319 kts | 242° |
| 2026-04-22 18:23 | 7.31317 | 171.72634 | 13297 ft | 318 kts | 243° |
| 2026-04-22 18:23 | 7.30552 | 171.70548 | 12911 ft | 318 kts | 254° |
| 2026-04-22 18:23 | 7.29932 | 171.68413 | 12590 ft | 317 kts | 253° |
| 2026-04-22 18:24 | 7.28640 | 171.64227 | 12000 ft | 309 kts | 252° |
| 2026-04-22 18:24 | 7.27985 | 171.62171 | 11678 ft | 307 kts | 252° |
| 2026-04-22 18:24 | 7.26672 | 171.58093 | 11022 ft | 306 kts | 251° |
| 2026-04-22 18:25 | 7.26013 | 171.56058 | 10699 ft | 305 kts | 251° |
| 2026-04-22 18:25 | 7.25358 | 171.54031 | 10378 ft | 303 kts | 251° |
| 2026-04-22 18:25 | 7.24704 | 171.52015 | 10060 ft | 303 kts | 251° |
| 2026-04-22 18:26 | 7.23423 | 171.48055 | 9588 ft | 292 kts | 251° |
| 2026-04-22 18:26 | 7.22797 | 171.46121 | 9265 ft | 290 kts | 251° |
| 2026-04-22 18:26 | 7.22171 | 171.44191 | 8922 ft | 290 kts | 251° |
| 2026-04-22 18:26 | 7.21546 | 171.42259 | 8602 ft | 290 kts | 252° |
| 2026-04-22 18:27 | 7.20921 | 171.40331 | 8290 ft | 289 kts | 252° |
| 2026-04-22 18:27 | 7.20298 | 171.38407 | 7972 ft | 289 kts | 252° |
| 2026-04-22 18:27 | 7.19675 | 171.36488 | 7672 ft | 288 kts | 252° |
| 2026-04-22 18:27 | 7.19054 | 171.34572 | 7361 ft | 287 kts | 252° |
| 2026-04-22 18:28 | 7.18434 | 171.32661 | 7056 ft | 287 kts | 252° |
| 2026-04-22 18:28 | 7.17815 | 171.30752 | 6732 ft | 286 kts | 252° |
| 2026-04-22 18:28 | 7.17197 | 171.28848 | 6432 ft | 286 kts | 252° |
| 2026-04-22 18:28 | 7.16588 | 171.26966 | 6113 ft | 286 kts | 252° |
| 2026-04-22 18:29 | 7.15970 | 171.25063 | 5777 ft | 285 kts | 252° |
| 2026-04-22 18:29 | 7.15355 | 171.23168 | 5457 ft | 285 kts | 252° |
| 2026-04-22 18:29 | 7.14741 | 171.21275 | 5152 ft | 285 kts | 252° |
| 2026-04-22 18:29 | 7.14127 | 171.19387 | 4848 ft | 284 kts | 252° |
| 2026-04-22 18:30 | 7.13516 | 171.17503 | 4557 ft | 282 kts | 252° |
| 2026-04-22 18:30 | 7.12307 | 171.13782 | 4053 ft | 277 kts | 252° |
| 2026-04-22 18:30 | 7.11718 | 171.11968 | 3934 ft | 267 kts | 253° |
| 2026-04-22 18:31 | 7.11066 | 171.10269 | 3811 ft | 254 kts | 238° |
| 2026-04-22 18:31 | 7.09861 | 171.09077 | 3730 ft | 231 kts | 207° |
| 2026-04-22 18:31 | 7.08384 | 171.08639 | 3557 ft | 216 kts | 180° |
| 2026-04-22 18:31 | 7.06927 | 171.08794 | 3401 ft | 209 kts | 165° |
| 2026-04-22 18:32 | 7.05990 | 171.08995 | 3334 ft | 208 kts | 165° |
| 2026-04-22 18:32 | 7.04172 | 171.09535 | 3159 ft | 197 kts | 145° |
| 2026-04-22 18:32 | 7.03301 | 171.10461 | 2947 ft | 173 kts | 112° |
| 2026-04-22 18:32 | 7.03051 | 171.11561 | 2681 ft | 153 kts | 85° |
| 2026-04-22 18:33 | 7.03173 | 171.12576 | 2618 ft | 142 kts | 79° |
| 2026-04-22 18:33 | 7.03327 | 171.13566 | 2583 ft | 143 kts | 80° |
| 2026-04-22 18:33 | 7.03470 | 171.14557 | 2441 ft | 143 kts | 79° |
| 2026-04-22 18:33 | 7.03648 | 171.15529 | 2301 ft | 142 kts | 76° |
| 2026-04-22 18:34 | 7.03876 | 171.16503 | 2158 ft | 144 kts | 74° |
| 2026-04-22 18:34 | 7.04115 | 171.17481 | 1897 ft | 143 kts | 74° |
| 2026-04-22 18:34 | 7.04350 | 171.18441 | 1617 ft | 140 kts | 74° |
| 2026-04-22 18:34 | 7.04585 | 171.19398 | 1356 ft | 140 kts | 75° |
| 2026-04-22 18:35 | 7.04822 | 171.20364 | 1147 ft | 140 kts | 74° |
| 2026-04-22 18:35 | 7.05053 | 171.21306 | 949 ft | 141 kts | 75° |
| 2026-04-22 18:35 | 7.05280 | 171.22275 | 725 ft | 139 kts | 76° |
| 2026-04-22 18:35 | 7.05498 | 171.23228 | 516 ft | 139 kts | 73° |
| 2026-04-22 18:36 | 7.05748 | 171.24129 | 324 ft | 134 kts | 72° |
| 2026-04-22 18:36 | 7.05980 | 171.25068 | 220 ft | 139 kts | 75° |
| 2026-04-22 18:36 | 7.06212 | 171.26006 | 60 ft | 141 kts | 75° |
| 2026-04-22 18:36 | 7.06433 | 171.26912 | 3 ft | 117 kts | 75° |
| 2026-04-22 18:37 | 7.06591 | 171.27556 | 2 ft | 72 kts | 76° |
| 2026-04-22 18:37 | 7.06678 | 171.27919 | 4 ft | 36 kts | 76° |
| 2026-04-22 18:37 | 7.06710 | 171.28051 | 4 ft | 15 kts | 73° |
| 2026-04-22 18:37 | 7.06784 | 171.28085 | 6 ft | 6 kts | 336° |
| 2026-04-22 18:38 | 7.06805 | 171.28068 | 8 ft | 2 kts | 311° |
| 2026-04-22 18:38 | 7.06813 | 171.28059 | 7 ft | 3 kts | 311° |
| 2026-04-22 18:38 | 7.06812 | 171.28046 | 7 ft | 3 kts | 238° |
| 2026-04-22 18:39 | 7.06794 | 171.28052 | 6 ft | 0 kts | 110° |
| 2026-04-22 18:40 | 7.06823 | 171.28117 | 7 ft | 0 kts | 114° |
| 2026-04-22 19:09 | 7.06816 | 171.28131 | 7 ft | 4 kts | 123° |
| 2026-04-22 19:10 | 7.06784 | 171.28152 | 8 ft | 7 kts | 164° |
| 2026-04-22 19:10 | 7.06730 | 171.28135 | 7 ft | 10 kts | 240° |
| 2026-04-22 19:10 | 7.06707 | 171.28046 | 4 ft | 16 kts | 255° |
| 2026-04-22 19:10 | 7.06677 | 171.27925 | 4 ft | 20 kts | 256° |
| 2026-04-22 19:11 | 7.06643 | 171.27781 | 5 ft | 23 kts | 256° |
| 2026-04-22 19:11 | 7.06601 | 171.27606 | 2 ft | 28 kts | 256° |
| 2026-04-22 19:11 | 7.06551 | 171.27399 | 4 ft | 32 kts | 256° |
| 2026-04-22 19:11 | 7.06494 | 171.27171 | 5 ft | 35 kts | 256° |
| 2026-04-22 19:12 | 7.06434 | 171.26922 | 4 ft | 39 kts | 256° |
| 2026-04-22 19:12 | 7.06368 | 171.26651 | 1 ft | 40 kts | 256° |
| 2026-04-22 19:12 | 7.06306 | 171.26397 | 0 ft | 32 kts | 256° |
| 2026-04-22 19:12 | 7.06275 | 171.26238 | 1 ft | 19 kts | 273° |
| 2026-04-22 19:13 | 7.06256 | 171.26160 | 1 ft | 4 kts | 175° |
| 2026-04-22 19:13 | 7.06249 | 171.26169 | 1 ft | 1 kts | 109° |
| 2026-04-22 19:13 | 7.06251 | 171.26177 | 1 ft | 2 kts | 76° |
| 2026-04-22 19:13 | 7.06255 | 171.26193 | 1 ft | 3 kts | 76° |
| 2026-04-22 19:14 | 7.06288 | 171.26326 | 0 ft | 57 kts | 75° |
| 2026-04-22 19:14 | 7.06449 | 171.26983 | 6 ft | 133 kts | 76° |
| 2026-04-22 19:14 | 7.06713 | 171.28063 | 283 ft | 172 kts | 76° |
| 2026-04-22 19:14 | 7.07064 | 171.29263 | 1054 ft | 181 kts | 63° |
| 2026-04-22 19:15 | 7.07583 | 171.29968 | 1543 ft | 192 kts | 41° |
| 2026-04-22 19:15 | 7.09381 | 171.30251 | 2346 ft | 226 kts | 343° |
| 2026-04-22 19:15 | 7.10609 | 171.29160 | 3057 ft | 246 kts | 295° |
| 2026-04-22 19:15 | 7.10830 | 171.27452 | 4054 ft | 260 kts | 259° |
| 2026-04-22 19:16 | 7.10056 | 171.25746 | 4823 ft | 276 kts | 239° |
| 2026-04-22 19:16 | 7.09332 | 171.23923 | 5642 ft | 286 kts | 264° |
| 2026-04-22 19:16 | 7.09534 | 171.21956 | 6658 ft | 287 kts | 292° |
| 2026-04-22 19:16 | 7.10412 | 171.20137 | 7557 ft | 292 kts | 297° |
| 2026-04-22 19:17 | 7.11286 | 171.18275 | 8491 ft | 297 kts | 297° |
| 2026-04-22 19:17 | 7.12178 | 171.16373 | 9423 ft | 303 kts | 297° |
| 2026-04-22 19:17 | 7.13087 | 171.14440 | 10263 ft | 310 kts | 297° |
| 2026-04-22 19:17 | 7.14040 | 171.12414 | 10806 ft | 328 kts | 297° |
| 2026-04-22 19:18 | 7.15038 | 171.10293 | 11418 ft | 342 kts | 297° |
| 2026-04-22 19:18 | 7.16062 | 171.08117 | 12247 ft | 345 kts | 297° |
| 2026-04-22 19:18 | 7.17093 | 171.05926 | 13098 ft | 350 kts | 297° |
| 2026-04-22 19:18 | 7.18143 | 171.03694 | 13918 ft | 354 kts | 297° |
| 2026-04-22 19:19 | 7.19202 | 171.01442 | 14699 ft | 358 kts | 297° |
| 2026-04-22 19:19 | 7.20272 | 170.99167 | 15430 ft | 362 kts | 296° |
| 2026-04-22 19:19 | 7.21355 | 170.96866 | 16157 ft | 366 kts | 296° |
| 2026-04-22 19:19 | 7.22445 | 170.94545 | 16864 ft | 369 kts | 296° |
| 2026-04-22 19:20 | 7.23552 | 170.92194 | 17536 ft | 374 kts | 296° |
| 2026-04-22 19:20 | 7.24668 | 170.89819 | 18236 ft | 377 kts | 296° |
| 2026-04-22 19:20 | 7.25795 | 170.87421 | 18836 ft | 380 kts | 296° |
| 2026-04-22 19:20 | 7.26929 | 170.85007 | 19439 ft | 383 kts | 296° |
| 2026-04-22 19:21 | 7.28074 | 170.82571 | 20004 ft | 386 kts | 296° |
| 2026-04-22 19:21 | 7.29229 | 170.80114 | 20567 ft | 390 kts | 296° |
| 2026-04-22 19:21 | 7.30393 | 170.77634 | 21143 ft | 392 kts | 295° |
| 2026-04-22 19:21 | 7.31564 | 170.75141 | 21698 ft | 396 kts | 295° |
| 2026-04-22 19:22 | 7.32363 | 170.73439 | 22031 ft | 399 kts | 295° |
| 2026-04-22 19:22 | 7.33554 | 170.70902 | 22550 ft | 403 kts | 295° |
| 2026-04-22 19:22 | 7.34741 | 170.68374 | 23103 ft | 405 kts | 295° |
| 2026-04-22 19:22 | 7.35945 | 170.65809 | 23677 ft | 406 kts | 295° |
| 2026-04-22 19:23 | 7.37176 | 170.63185 | 24060 ft | 411 kts | 295° |
| 2026-04-22 19:23 | 7.38398 | 170.60581 | 24563 ft | 411 kts | 295° |
| 2026-04-22 19:23 | 7.39623 | 170.57969 | 25050 ft | 413 kts | 295° |
| 2026-04-22 19:23 | 7.40855 | 170.55343 | 25434 ft | 417 kts | 294° |
| 2026-04-22 19:24 | 7.42081 | 170.52727 | 25839 ft | 420 kts | 295° |
| 2026-04-22 19:24 | 7.43346 | 170.50031 | 26340 ft | 421 kts | 294° |
| 2026-04-22 19:24 | 7.44576 | 170.47384 | 26703 ft | 425 kts | 292° |
| 2026-04-22 19:24 | 7.45654 | 170.44615 | 27152 ft | 426 kts | 290° |
| 2026-04-22 19:25 | 7.46739 | 170.41828 | 27571 ft | 428 kts | 290° |
| 2026-04-22 19:25 | 7.47856 | 170.38988 | 27871 ft | 433 kts | 291° |
| 2026-04-22 19:25 | 7.48983 | 170.36140 | 27920 ft | 442 kts | 291° |
| 2026-04-22 19:25 | 7.50129 | 170.33247 | 27897 ft | 445 kts | 290° |
| 2026-04-22 19:26 | 7.51260 | 170.30387 | 27909 ft | 446 kts | 291° |
| 2026-04-22 19:26 | 7.52408 | 170.27489 | 27912 ft | 445 kts | 290° |
| 2026-04-22 19:26 | 7.53557 | 170.24588 | 27911 ft | 446 kts | 290° |
| 2026-04-22 19:26 | 7.54705 | 170.21687 | 27912 ft | 445 kts | 291° |
| 2026-04-22 19:27 | 7.55852 | 170.18788 | 27905 ft | 446 kts | 290° |
| 2026-04-22 19:27 | 7.57014 | 170.15849 | 27915 ft | 445 kts | 291° |
| 2026-04-22 19:27 | 7.58144 | 170.12990 | 27911 ft | 445 kts | 291° |
| 2026-04-22 19:27 | 7.59304 | 170.10056 | 27910 ft | 445 kts | 291° |
| 2026-04-22 19:28 | 7.60435 | 170.07196 | 27910 ft | 446 kts | 291° |
| 2026-04-22 19:28 | 7.61593 | 170.04266 | 27907 ft | 455 kts | 290° |
| 2026-04-22 19:28 | 7.62774 | 170.01276 | 27906 ft | 463 kts | 291° |
| 2026-04-22 19:28 | 7.63975 | 169.98236 | 27905 ft | 471 kts | 291° |
| 2026-04-22 19:29 | 7.65194 | 169.95148 | 27910 ft | 477 kts | 291° |
| 2026-04-22 19:29 | 7.66425 | 169.92030 | 27904 ft | 480 kts | 291° |
| 2026-04-22 19:29 | 7.67660 | 169.88902 | 27911 ft | 481 kts | 291° |
| 2026-04-22 19:29 | 7.68894 | 169.85775 | 27911 ft | 481 kts | 291° |
| 2026-04-22 19:30 | 7.69731 | 169.83655 | 27913 ft | 481 kts | 291° |
| 2026-04-22 19:30 | 7.71364 | 169.79514 | 27916 ft | 480 kts | 291° |
| 2026-04-22 19:30 | 7.72600 | 169.76379 | 27916 ft | 480 kts | 291° |
| 2026-04-22 19:30 | 7.73833 | 169.73252 | 27913 ft | 480 kts | 291° |
| 2026-04-22 19:31 | 7.75063 | 169.70129 | 27913 ft | 480 kts | 291° |
| 2026-04-22 19:31 | 7.76296 | 169.67001 | 27912 ft | 480 kts | 291° |
| 2026-04-22 19:31 | 7.77528 | 169.63874 | 27912 ft | 480 kts | 291° |
| 2026-04-22 19:31 | 7.78760 | 169.60745 | 27911 ft | 480 kts | 291° |
| 2026-04-22 19:32 | 7.79992 | 169.57616 | 27914 ft | 480 kts | 291° |
| 2026-04-22 19:32 | 7.81225 | 169.54483 | 27914 ft | 480 kts | 291° |
| 2026-04-22 19:32 | 7.82456 | 169.51356 | 27913 ft | 480 kts | 291° |
| 2026-04-22 19:32 | 7.83688 | 169.48224 | 27913 ft | 480 kts | 291° |
| 2026-04-22 19:33 | 7.84919 | 169.45095 | 27910 ft | 480 kts | 291° |
| 2026-04-22 19:33 | 7.86149 | 169.41967 | 27912 ft | 480 kts | 291° |
| 2026-04-22 19:33 | 7.87379 | 169.38840 | 27914 ft | 480 kts | 291° |
| 2026-04-22 19:33 | 7.88608 | 169.35712 | 27915 ft | 479 kts | 291° |
| 2026-04-22 19:34 | 7.89836 | 169.32587 | 27915 ft | 479 kts | 291° |
| 2026-04-22 19:34 | 7.91064 | 169.29462 | 27913 ft | 479 kts | 291° |
| 2026-04-22 19:34 | 7.92292 | 169.26335 | 27914 ft | 479 kts | 291° |
| 2026-04-22 19:34 | 7.93520 | 169.23208 | 27913 ft | 480 kts | 291° |
| 2026-04-22 19:35 | 7.94747 | 169.20080 | 27916 ft | 480 kts | 291° |
| 2026-04-22 19:35 | 7.95975 | 169.16952 | 27913 ft | 480 kts | 291° |
| 2026-04-22 19:35 | 7.97204 | 169.13821 | 27914 ft | 479 kts | 291° |
| 2026-04-22 19:35 | 7.98430 | 169.10695 | 27913 ft | 479 kts | 291° |
| 2026-04-22 19:36 | 7.99656 | 169.07570 | 27911 ft | 480 kts | 291° |
| 2026-04-22 19:36 | 8.00884 | 169.04437 | 27911 ft | 480 kts | 291° |
| 2026-04-22 19:36 | 8.02110 | 169.01311 | 27910 ft | 480 kts | 291° |
| 2026-04-22 19:36 | 8.03336 | 168.98181 | 27913 ft | 480 kts | 291° |
| 2026-04-22 19:37 | 8.04562 | 168.95052 | 27919 ft | 479 kts | 291° |
| 2026-04-22 19:37 | 8.05789 | 168.91920 | 27915 ft | 479 kts | 291° |
| 2026-04-22 19:37 | 8.07012 | 168.88795 | 27918 ft | 480 kts | 291° |
| 2026-04-22 19:37 | 8.08236 | 168.85667 | 27916 ft | 479 kts | 291° |
| 2026-04-22 19:38 | 8.09461 | 168.82538 | 27912 ft | 480 kts | 291° |
| 2026-04-22 19:38 | 8.10687 | 168.79407 | 27915 ft | 480 kts | 291° |
| 2026-04-22 19:38 | 8.11912 | 168.76275 | 27913 ft | 479 kts | 291° |
| 2026-04-22 19:38 | 8.13135 | 168.73146 | 27913 ft | 479 kts | 291° |
| 2026-04-22 19:39 | 8.14356 | 168.70026 | 26768 ft | 482 kts | 291° |
| 2026-04-22 19:39 | 8.15603 | 168.66835 | 25498 ft | 493 kts | 291° |
| 2026-04-22 19:39 | 8.16861 | 168.63615 | 24502 ft | 494 kts | 291° |
| 2026-04-22 19:39 | 8.18117 | 168.60401 | 23783 ft | 489 kts | 291° |
| 2026-04-22 19:40 | 8.19359 | 168.57221 | 23057 ft | 483 kts | 291° |
| 2026-04-22 19:40 | 8.20581 | 168.54092 | 22314 ft | 477 kts | 291° |
| 2026-04-22 19:40 | 8.21790 | 168.50995 | 21565 ft | 472 kts | 291° |
| 2026-04-22 19:40 | 8.22987 | 168.47929 | 20838 ft | 467 kts | 291° |
| 2026-04-22 19:41 | 8.24172 | 168.44892 | 20158 ft | 463 kts | 291° |
| 2026-04-22 19:41 | 8.25345 | 168.41883 | 19475 ft | 459 kts | 291° |
| 2026-04-22 19:41 | 8.26508 | 168.38903 | 18837 ft | 454 kts | 292° |
| 2026-04-22 19:41 | 8.27659 | 168.35948 | 18215 ft | 449 kts | 292° |
| 2026-04-22 19:42 | 8.28793 | 168.33038 | 17549 ft | 441 kts | 292° |
| 2026-04-22 19:42 | 8.29903 | 168.30190 | 16827 ft | 431 kts | 292° |
| 2026-04-22 19:42 | 8.30991 | 168.27398 | 16092 ft | 423 kts | 292° |
| 2026-04-22 19:42 | 8.32060 | 168.24655 | 15381 ft | 416 kts | 292° |
| 2026-04-22 19:43 | 8.34137 | 168.19319 | 13916 ft | 400 kts | 292° |
| 2026-04-22 19:43 | 8.35147 | 168.16725 | 13069 ft | 393 kts | 292° |
| 2026-04-22 19:43 | 8.36135 | 168.14187 | 12255 ft | 385 kts | 292° |
| 2026-04-22 19:44 | 8.37104 | 168.11697 | 11494 ft | 377 kts | 292° |
| 2026-04-22 19:44 | 8.38052 | 168.09260 | 10893 ft | 367 kts | 292° |
| 2026-04-22 19:44 | 8.38967 | 168.06907 | 10701 ft | 351 kts | 292° |
| 2026-04-22 19:44 | 8.39837 | 168.04667 | 10556 ft | 335 kts | 292° |
| 2026-04-22 19:45 | 8.40669 | 168.02529 | 10413 ft | 320 kts | 292° |
| 2026-04-22 19:45 | 8.41465 | 168.00479 | 10272 ft | 308 kts | 292° |
| 2026-04-22 19:45 | 8.42239 | 167.98490 | 10116 ft | 301 kts | 292° |
| 2026-04-22 19:45 | 8.42994 | 167.96547 | 9947 ft | 294 kts | 292° |
| 2026-04-22 19:46 | 8.43738 | 167.94631 | 9656 ft | 293 kts | 292° |
| 2026-04-22 19:46 | 8.44481 | 167.92719 | 9302 ft | 292 kts | 292° |
| 2026-04-22 19:46 | 8.45223 | 167.90810 | 8978 ft | 292 kts | 292° |
| 2026-04-22 19:46 | 8.45960 | 167.88910 | 8662 ft | 290 kts | 292° |
| 2026-04-22 19:47 | 8.46696 | 167.87018 | 8352 ft | 289 kts | 292° |
| 2026-04-22 19:47 | 8.47426 | 167.85136 | 8051 ft | 287 kts | 292° |
| 2026-04-22 19:47 | 8.47917 | 167.83872 | 7847 ft | 286 kts | 292° |
| 2026-04-22 19:47 | 8.48876 | 167.81401 | 7435 ft | 284 kts | 292° |
| 2026-04-22 19:48 | 8.49596 | 167.79545 | 7145 ft | 283 kts | 292° |
| 2026-04-22 19:48 | 8.50312 | 167.77698 | 6844 ft | 281 kts | 292° |
| 2026-04-22 19:48 | 8.51025 | 167.75861 | 6545 ft | 280 kts | 292° |
| 2026-04-22 19:48 | 8.51734 | 167.74030 | 6235 ft | 280 kts | 292° |
| 2026-04-22 19:49 | 8.52442 | 167.72205 | 5904 ft | 279 kts | 292° |
| 2026-04-22 19:49 | 8.53149 | 167.70377 | 5584 ft | 279 kts | 292° |
| 2026-04-22 19:49 | 8.53854 | 167.68555 | 5271 ft | 278 kts | 292° |
| 2026-04-22 19:49 | 8.54557 | 167.66741 | 4980 ft | 277 kts | 292° |
| 2026-04-22 19:50 | 8.55256 | 167.64935 | 4682 ft | 275 kts | 292° |
| 2026-04-22 19:50 | 8.55950 | 167.63138 | 4387 ft | 274 kts | 292° |
| 2026-04-22 19:50 | 8.56639 | 167.61358 | 4157 ft | 269 kts | 292° |
| 2026-04-22 19:50 | 8.57309 | 167.59629 | 4026 ft | 261 kts | 292° |
| 2026-04-22 19:51 | 8.58066 | 167.58033 | 3967 ft | 242 kts | 309° |
| 2026-04-22 19:51 | 8.59300 | 167.57025 | 3846 ft | 219 kts | 336° |
| 2026-04-22 19:51 | 8.60630 | 167.56511 | 3709 ft | 191 kts | 342° |
| 2026-04-22 19:51 | 8.61794 | 167.56077 | 3606 ft | 163 kts | 340° |
| 2026-04-22 19:52 | 8.62791 | 167.55704 | 3671 ft | 151 kts | 344° |
| 2026-04-22 19:52 | 8.63809 | 167.55380 | 3614 ft | 154 kts | 346° |
| 2026-04-22 19:52 | 8.64845 | 167.55127 | 3463 ft | 152 kts | 1° |
| 2026-04-22 19:52 | 8.65823 | 167.55435 | 3285 ft | 148 kts | 36° |
| 2026-04-22 19:53 | 8.66505 | 167.56197 | 3127 ft | 147 kts | 61° |
| 2026-04-22 19:53 | 8.66929 | 167.57146 | 2989 ft | 148 kts | 66° |
| 2026-04-22 19:53 | 8.67192 | 167.57780 | 2857 ft | 148 kts | 67° |
| 2026-04-22 19:53 | 8.67655 | 167.59073 | 2597 ft | 145 kts | 71° |
| 2026-04-22 19:54 | 8.67960 | 167.60042 | 2466 ft | 145 kts | 72° |
| 2026-04-22 19:54 | 8.68260 | 167.61010 | 2366 ft | 146 kts | 72° |
| 2026-04-22 19:54 | 8.68558 | 167.61986 | 2253 ft | 144 kts | 72° |
| 2026-04-22 19:54 | 8.68856 | 167.62946 | 2116 ft | 144 kts | 72° |
| 2026-04-22 19:55 | 8.69154 | 167.63911 | 1915 ft | 143 kts | 72° |
| 2026-04-22 19:55 | 8.69452 | 167.64866 | 1612 ft | 141 kts | 72° |
| 2026-04-22 19:55 | 8.69744 | 167.65811 | 1347 ft | 142 kts | 71° |
| 2026-04-22 19:55 | 8.70038 | 167.66766 | 1147 ft | 142 kts | 72° |
| 2026-04-22 19:56 | 8.70331 | 167.67717 | 953 ft | 142 kts | 71° |
| 2026-04-22 19:56 | 8.70619 | 167.68678 | 750 ft | 142 kts | 70° |
| 2026-04-22 19:56 | 8.70913 | 167.69629 | 585 ft | 143 kts | 71° |
| 2026-04-22 19:56 | 8.71218 | 167.70596 | 320 ft | 144 kts | 71° |
| 2026-04-22 19:57 | 8.71510 | 167.71560 | 148 ft | 143 kts | 71° |
| 2026-04-22 19:57 | 8.71812 | 167.72514 | -22 ft | 139 kts | 71° |
| 2026-04-22 19:57 | 8.72053 | 167.73292 | -43 ft | 84 kts | 72° |
| 2026-04-22 19:57 | 8.72181 | 167.73706 | -47 ft | 54 kts | 72° |
| 2026-04-22 19:58 | 8.72238 | 167.73892 | -48 ft | 15 kts | 73° |
| 2026-04-22 19:58 | 8.72293 | 167.73979 | -33 ft | 16 kts | 16° |
| 2026-04-22 19:58 | 8.72408 | 167.73951 | -46 ft | 18 kts | 341° |
| 2026-04-22 19:58 | 8.72538 | 167.73915 | -43 ft | 21 kts | 345° |
| 2026-04-22 19:59 | 8.72645 | 167.73913 | -34 ft | 16 kts | 25° |
| 2026-04-22 20:00 | 8.72734 | 167.74021 | -34 ft | 0 kts | 121° |